<?xml version="1.0" encoding="utf-8"?>
<gpx xmlns:xsi="http://www.w3.org/2001/XMLSchema-instance" xmlns:xsd="http://www.w3.org/2001/XMLSchema" version="1.1" creator="Shapelink.com" xmlns="http://www.topografix.com/GPX/1/1" xmlns:gpxtpx="http://www.garmin.com/xmlschemas/TrackPointExtension/v1">
  <metadata>
    <name>Löpning 13.76 km, 2012-03-20</name>
    <desc></desc>
    <author><name>Dennis Rehn</name></author> 
    <time>2012-03-20T18:08:53Z</time>
  </metadata>
  <trk>
    <name>Löpning 13.76 km, 2012-03-20</name>
    <trkseg>
      <trkpt lat="59.990076122" lon="23.4070419801">
        <ele>132.8</ele>
        <time>2012-03-20T18:08:53Z</time>
      </trkpt>
      <trkpt lat="59.989841345" lon="23.407159662">
        <ele>123</ele>
        <time>2012-03-20T18:09:00Z</time>
      </trkpt>
      <trkpt lat="59.989692231" lon="23.4073122964">
        <ele>113.6</ele>
        <time>2012-03-20T18:09:05Z</time>
      </trkpt>
      <trkpt lat="59.9896253434" lon="23.4074448142">
        <ele>111</ele>
        <time>2012-03-20T18:09:09Z</time>
      </trkpt>
      <trkpt lat="59.9895178874" lon="23.4074516874">
        <ele>101.6</ele>
        <time>2012-03-20T18:09:13Z</time>
      </trkpt>
      <trkpt lat="59.9893476511" lon="23.4073016513">
        <ele>87.8</ele>
        <time>2012-03-20T18:09:20Z</time>
      </trkpt>
      <trkpt lat="59.9892407818" lon="23.4072134738">
        <ele>80.2</ele>
        <time>2012-03-20T18:09:25Z</time>
      </trkpt>
      <trkpt lat="59.9891132931" lon="23.4070947022">
        <ele>74.4</ele>
        <time>2012-03-20T18:09:30Z</time>
      </trkpt>
      <trkpt lat="59.9889718067" lon="23.4069636093">
        <ele>70.2</ele>
        <time>2012-03-20T18:09:35Z</time>
      </trkpt>
      <trkpt lat="59.9888877362" lon="23.4068648705">
        <ele>68</ele>
        <time>2012-03-20T18:09:38Z</time>
      </trkpt>
      <trkpt lat="59.9886811224" lon="23.4065472803">
        <ele>64.8</ele>
        <time>2012-03-20T18:09:47Z</time>
      </trkpt>
      <trkpt lat="59.9885712357" lon="23.4063129224">
        <ele>63.6</ele>
        <time>2012-03-20T18:09:54Z</time>
      </trkpt>
      <trkpt lat="59.9884280728" lon="23.4061515708">
        <ele>62.4</ele>
        <time>2012-03-20T18:10:02Z</time>
      </trkpt>
      <trkpt lat="59.9883321001" lon="23.4060745412">
        <ele>60.8</ele>
        <time>2012-03-20T18:10:07Z</time>
      </trkpt>
      <trkpt lat="59.9883118997" lon="23.4060483058">
        <ele>60.4</ele>
        <time>2012-03-20T18:10:08Z</time>
      </trkpt>
      <trkpt lat="59.9881866741" lon="23.4059299534">
        <ele>58</ele>
        <time>2012-03-20T18:10:14Z</time>
      </trkpt>
      <trkpt lat="59.9881233907" lon="23.4058543487">
        <ele>56.2</ele>
        <time>2012-03-20T18:10:18Z</time>
      </trkpt>
      <trkpt lat="59.9880284238" lon="23.4058254311">
        <ele>54.6</ele>
        <time>2012-03-20T18:10:22Z</time>
      </trkpt>
      <trkpt lat="59.9878970794" lon="23.4058645746">
        <ele>52.8</ele>
        <time>2012-03-20T18:10:27Z</time>
      </trkpt>
      <trkpt lat="59.9877897911" lon="23.4059535904">
        <ele>51.6</ele>
        <time>2012-03-20T18:10:32Z</time>
      </trkpt>
      <trkpt lat="59.9876585306" lon="23.4061231562">
        <ele>49.4</ele>
        <time>2012-03-20T18:10:39Z</time>
      </trkpt>
      <trkpt lat="59.9875869491" lon="23.406235306">
        <ele>48.2</ele>
        <time>2012-03-20T18:10:43Z</time>
      </trkpt>
      <trkpt lat="59.9874410203" lon="23.4064598571">
        <ele>46.6</ele>
        <time>2012-03-20T18:10:50Z</time>
      </trkpt>
      <trkpt lat="59.9873380067" lon="23.4066006731">
        <ele>45.4</ele>
        <time>2012-03-20T18:10:55Z</time>
      </trkpt>
      <trkpt lat="59.9871857076" lon="23.4067674729">
        <ele>44.2</ele>
        <time>2012-03-20T18:11:02Z</time>
      </trkpt>
      <trkpt lat="59.9870486635" lon="23.4068737554">
        <ele>43.2</ele>
        <time>2012-03-20T18:11:08Z</time>
      </trkpt>
      <trkpt lat="59.9869021479" lon="23.4069471808">
        <ele>42.2</ele>
        <time>2012-03-20T18:11:14Z</time>
      </trkpt>
      <trkpt lat="59.9867504355" lon="23.4069703148">
        <ele>41.2</ele>
        <time>2012-03-20T18:11:20Z</time>
      </trkpt>
      <trkpt lat="59.9865860665" lon="23.4069772718">
        <ele>40.2</ele>
        <time>2012-03-20T18:11:26Z</time>
      </trkpt>
      <trkpt lat="59.9862667161" lon="23.4070506973">
        <ele>39.4</ele>
        <time>2012-03-20T18:11:38Z</time>
      </trkpt>
      <trkpt lat="59.9861093878" lon="23.4070596659">
        <ele>38.4</ele>
        <time>2012-03-20T18:11:44Z</time>
      </trkpt>
      <trkpt lat="59.9859748583" lon="23.4070501943">
        <ele>37.6</ele>
        <time>2012-03-20T18:11:49Z</time>
      </trkpt>
      <trkpt lat="59.9858212181" lon="23.4069954605">
        <ele>36.4</ele>
        <time>2012-03-20T18:11:55Z</time>
      </trkpt>
      <trkpt lat="59.9857057155" lon="23.4069240468">
        <ele>35.4</ele>
        <time>2012-03-20T18:12:00Z</time>
      </trkpt>
      <trkpt lat="59.9855247503" lon="23.406813238">
        <ele>34</ele>
        <time>2012-03-20T18:12:07Z</time>
      </trkpt>
      <trkpt lat="59.9853642369" lon="23.406753978">
        <ele>33.4</ele>
        <time>2012-03-20T18:12:13Z</time>
      </trkpt>
      <trkpt lat="59.985294248" lon="23.4067435006">
        <ele>33.4</ele>
        <time>2012-03-20T18:12:16Z</time>
      </trkpt>
      <trkpt lat="59.9851849481" lon="23.4067082128">
        <ele>33.2</ele>
        <time>2012-03-20T18:12:21Z</time>
      </trkpt>
      <trkpt lat="59.9849275399" lon="23.4068652896">
        <ele>33</ele>
        <time>2012-03-20T18:12:31Z</time>
      </trkpt>
      <trkpt lat="59.9848568805" lon="23.4072396253">
        <ele>32.2</ele>
        <time>2012-03-20T18:12:38Z</time>
      </trkpt>
      <trkpt lat="59.9848184914" lon="23.4075806848">
        <ele>31.6</ele>
        <time>2012-03-20T18:12:44Z</time>
      </trkpt>
      <trkpt lat="59.9847615783" lon="23.4079075789">
        <ele>30.6</ele>
        <time>2012-03-20T18:12:50Z</time>
      </trkpt>
      <trkpt lat="59.9847153102" lon="23.4082591158">
        <ele>29.6</ele>
        <time>2012-03-20T18:12:56Z</time>
      </trkpt>
      <trkpt lat="59.984669545" lon="23.4086591001">
        <ele>28.6</ele>
        <time>2012-03-20T18:13:03Z</time>
      </trkpt>
      <trkpt lat="59.9846317427" lon="23.40900368">
        <ele>27.6</ele>
        <time>2012-03-20T18:13:09Z</time>
      </trkpt>
      <trkpt lat="59.9846057588" lon="23.409280115">
        <ele>26.2</ele>
        <time>2012-03-20T18:13:14Z</time>
      </trkpt>
      <trkpt lat="59.9845496" lon="23.4096267904">
        <ele>25.4</ele>
        <time>2012-03-20T18:13:20Z</time>
      </trkpt>
      <trkpt lat="59.9844786892" lon="23.4099201569">
        <ele>24.4</ele>
        <time>2012-03-20T18:13:26Z</time>
      </trkpt>
      <trkpt lat="59.9844185909" lon="23.4100910638">
        <ele>23.6</ele>
        <time>2012-03-20T18:13:30Z</time>
      </trkpt>
      <trkpt lat="59.984412556" lon="23.4103778925">
        <ele>23</ele>
        <time>2012-03-20T18:13:35Z</time>
      </trkpt>
      <trkpt lat="59.9844586564" lon="23.4107249869">
        <ele>22.8</ele>
        <time>2012-03-20T18:13:41Z</time>
      </trkpt>
      <trkpt lat="59.9844951177" lon="23.411132934">
        <ele>22.4</ele>
        <time>2012-03-20T18:13:48Z</time>
      </trkpt>
      <trkpt lat="59.9845208501" lon="23.4114741612">
        <ele>22.4</ele>
        <time>2012-03-20T18:13:54Z</time>
      </trkpt>
      <trkpt lat="59.9845465826" lon="23.4118724691">
        <ele>22.4</ele>
        <time>2012-03-20T18:14:01Z</time>
      </trkpt>
      <trkpt lat="59.9845664477" lon="23.4121882152">
        <ele>22.2</ele>
        <time>2012-03-20T18:14:07Z</time>
      </trkpt>
      <trkpt lat="59.9845873186" lon="23.4125723577">
        <ele>21.8</ele>
        <time>2012-03-20T18:14:14Z</time>
      </trkpt>
      <trkpt lat="59.984597796" lon="23.4128604436">
        <ele>21.2</ele>
        <time>2012-03-20T18:14:19Z</time>
      </trkpt>
      <trkpt lat="59.9846151465" lon="23.4132703185">
        <ele>20.6</ele>
        <time>2012-03-20T18:14:26Z</time>
      </trkpt>
      <trkpt lat="59.9846505181" lon="23.4137361845">
        <ele>20.4</ele>
        <time>2012-03-20T18:14:34Z</time>
      </trkpt>
      <trkpt lat="59.9846702156" lon="23.4140248572">
        <ele>20.4</ele>
        <time>2012-03-20T18:14:39Z</time>
      </trkpt>
      <trkpt lat="59.9846914218" lon="23.4144378334">
        <ele>20.2</ele>
        <time>2012-03-20T18:14:46Z</time>
      </trkpt>
      <trkpt lat="59.9847081856" lon="23.414776043">
        <ele>20.2</ele>
        <time>2012-03-20T18:14:52Z</time>
      </trkpt>
      <trkpt lat="59.9847384442" lon="23.4150487062">
        <ele>20.2</ele>
        <time>2012-03-20T18:14:57Z</time>
      </trkpt>
      <trkpt lat="59.9847680324" lon="23.4152538952">
        <ele>20.2</ele>
        <time>2012-03-20T18:15:01Z</time>
      </trkpt>
      <trkpt lat="59.984808936" lon="23.4155796996">
        <ele>20.2</ele>
        <time>2012-03-20T18:15:07Z</time>
      </trkpt>
      <trkpt lat="59.9848106124" lon="23.4159130478">
        <ele>20.2</ele>
        <time>2012-03-20T18:15:13Z</time>
      </trkpt>
      <trkpt lat="59.9848122888" lon="23.4162026424">
        <ele>20.2</ele>
        <time>2012-03-20T18:15:18Z</time>
      </trkpt>
      <trkpt lat="59.9848077626" lon="23.4165752179">
        <ele>20.2</ele>
        <time>2012-03-20T18:15:24Z</time>
      </trkpt>
      <trkpt lat="59.9848035716" lon="23.416950727">
        <ele>20.2</ele>
        <time>2012-03-20T18:15:31Z</time>
      </trkpt>
      <trkpt lat="59.9847956088" lon="23.4173121545">
        <ele>20.2</ele>
        <time>2012-03-20T18:15:37Z</time>
      </trkpt>
      <trkpt lat="59.9847908311" lon="23.4176661222">
        <ele>20.2</ele>
        <time>2012-03-20T18:15:43Z</time>
      </trkpt>
      <trkpt lat="59.9847879813" lon="23.4180813615">
        <ele>20.2</ele>
        <time>2012-03-20T18:15:50Z</time>
      </trkpt>
      <trkpt lat="59.9847801861" lon="23.4184433757">
        <ele>20.2</ele>
        <time>2012-03-20T18:15:56Z</time>
      </trkpt>
      <trkpt lat="59.9847787612" lon="23.4187882909">
        <ele>20.2</ele>
        <time>2012-03-20T18:16:02Z</time>
      </trkpt>
      <trkpt lat="59.9847948544" lon="23.4191708408">
        <ele>20.2</ele>
        <time>2012-03-20T18:16:09Z</time>
      </trkpt>
      <trkpt lat="59.9848072596" lon="23.4195341962">
        <ele>20.2</ele>
        <time>2012-03-20T18:16:15Z</time>
      </trkpt>
      <trkpt lat="59.9847638414" lon="23.4198763454">
        <ele>20.2</ele>
        <time>2012-03-20T18:16:21Z</time>
      </trkpt>
      <trkpt lat="59.9846955289" lon="23.4204699515">
        <ele>20.2</ele>
        <time>2012-03-20T18:16:33Z</time>
      </trkpt>
      <trkpt lat="59.9846169905" lon="23.4208255955">
        <ele>20.2</ele>
        <time>2012-03-20T18:16:40Z</time>
      </trkpt>
      <trkpt lat="59.9845480913" lon="23.421143521">
        <ele>20.2</ele>
        <time>2012-03-20T18:16:46Z</time>
      </trkpt>
      <trkpt lat="59.9845024938" lon="23.4214141726">
        <ele>20.2</ele>
        <time>2012-03-20T18:16:51Z</time>
      </trkpt>
      <trkpt lat="59.9844404677" lon="23.4217673858">
        <ele>20.2</ele>
        <time>2012-03-20T18:16:58Z</time>
      </trkpt>
      <trkpt lat="59.9843941158" lon="23.4220398814">
        <ele>20.2</ele>
        <time>2012-03-20T18:17:03Z</time>
      </trkpt>
      <trkpt lat="59.9843278988" lon="23.4224116187">
        <ele>20.2</ele>
        <time>2012-03-20T18:17:10Z</time>
      </trkpt>
      <trkpt lat="59.9842676329" lon="23.4227207431">
        <ele>20.2</ele>
        <time>2012-03-20T18:17:16Z</time>
      </trkpt>
      <trkpt lat="59.9842028408" lon="23.4230966713">
        <ele>20.2</ele>
        <time>2012-03-20T18:17:23Z</time>
      </trkpt>
      <trkpt lat="59.9841440837" lon="23.4234300195">
        <ele>20.2</ele>
        <time>2012-03-20T18:17:29Z</time>
      </trkpt>
      <trkpt lat="59.9840820577" lon="23.4238065345">
        <ele>20.2</ele>
        <time>2012-03-20T18:17:36Z</time>
      </trkpt>
      <trkpt lat="59.984036041" lon="23.4241199337">
        <ele>20.2</ele>
        <time>2012-03-20T18:17:42Z</time>
      </trkpt>
      <trkpt lat="59.9840111468" lon="23.4244878991">
        <ele>20.2</ele>
        <time>2012-03-20T18:17:48Z</time>
      </trkpt>
      <trkpt lat="59.9840023458" lon="23.4248780766">
        <ele>20.2</ele>
        <time>2012-03-20T18:17:54Z</time>
      </trkpt>
      <trkpt lat="59.9839849114" lon="23.4250367459">
        <ele>20.2</ele>
        <time>2012-03-20T18:17:58Z</time>
      </trkpt>
      <trkpt lat="59.9839810558" lon="23.4251357362">
        <ele>20.2</ele>
        <time>2012-03-20T18:18:00Z</time>
      </trkpt>
      <trkpt lat="59.9839463547" lon="23.4253254186">
        <ele>20.2</ele>
        <time>2012-03-20T18:18:03Z</time>
      </trkpt>
      <trkpt lat="59.9837900323" lon="23.4254074774">
        <ele>20.2</ele>
        <time>2012-03-20T18:18:09Z</time>
      </trkpt>
      <trkpt lat="59.9836803132" lon="23.4253840919">
        <ele>19.6</ele>
        <time>2012-03-20T18:18:14Z</time>
      </trkpt>
      <trkpt lat="59.9835756233" lon="23.4253489717">
        <ele>19</ele>
        <time>2012-03-20T18:18:18Z</time>
      </trkpt>
      <trkpt lat="59.9833818337" lon="23.4254496383">
        <ele>18.6</ele>
        <time>2012-03-20T18:18:24Z</time>
      </trkpt>
      <trkpt lat="59.9833172931" lon="23.4258051147">
        <ele>18.4</ele>
        <time>2012-03-20T18:18:31Z</time>
      </trkpt>
      <trkpt lat="59.9833393375" lon="23.4259108943">
        <ele>18.4</ele>
        <time>2012-03-20T18:18:33Z</time>
      </trkpt>
      <trkpt lat="59.983383091" lon="23.4263719826">
        <ele>18.2</ele>
        <time>2012-03-20T18:18:42Z</time>
      </trkpt>
      <trkpt lat="59.9833030439" lon="23.4267485814">
        <ele>18.2</ele>
        <time>2012-03-20T18:18:50Z</time>
      </trkpt>
      <trkpt lat="59.983251579" lon="23.4270481505">
        <ele>18.2</ele>
        <time>2012-03-20T18:18:56Z</time>
      </trkpt>
      <trkpt lat="59.9831961746" lon="23.4273581131">
        <ele>18.2</ele>
        <time>2012-03-20T18:19:02Z</time>
      </trkpt>
      <trkpt lat="59.9831572826" lon="23.4275831671">
        <ele>18.2</ele>
        <time>2012-03-20T18:19:07Z</time>
      </trkpt>
      <trkpt lat="59.9831033032" lon="23.4278872625">
        <ele>18.2</ele>
        <time>2012-03-20T18:19:13Z</time>
      </trkpt>
      <trkpt lat="59.9830732122" lon="23.428088009">
        <ele>18.2</ele>
        <time>2012-03-20T18:19:17Z</time>
      </trkpt>
      <trkpt lat="59.9830151256" lon="23.4284338462">
        <ele>18.2</ele>
        <time>2012-03-20T18:19:24Z</time>
      </trkpt>
      <trkpt lat="59.9829567038" lon="23.428785886">
        <ele>18.2</ele>
        <time>2012-03-20T18:19:31Z</time>
      </trkpt>
      <trkpt lat="59.9829055742" lon="23.4291055716">
        <ele>18.2</ele>
        <time>2012-03-20T18:19:37Z</time>
      </trkpt>
      <trkpt lat="59.9828663469" lon="23.4293592917">
        <ele>18.2</ele>
        <time>2012-03-20T18:19:42Z</time>
      </trkpt>
      <trkpt lat="59.9828508404" lon="23.4294711901">
        <ele>18.2</ele>
        <time>2012-03-20T18:19:44Z</time>
      </trkpt>
      <trkpt lat="59.9828396924" lon="23.4295607926">
        <ele>18.2</ele>
        <time>2012-03-20T18:19:46Z</time>
      </trkpt>
      <trkpt lat="59.9827977829" lon="23.4298184522">
        <ele>18.2</ele>
        <time>2012-03-20T18:19:51Z</time>
      </trkpt>
      <trkpt lat="59.982753778" lon="23.4300761957">
        <ele>18.2</ele>
        <time>2012-03-20T18:19:56Z</time>
      </trkpt>
      <trkpt lat="59.9826721383" lon="23.430289515">
        <ele>18.2</ele>
        <time>2012-03-20T18:20:01Z</time>
      </trkpt>
      <trkpt lat="59.9825364353" lon="23.4304905968">
        <ele>18.2</ele>
        <time>2012-03-20T18:20:08Z</time>
      </trkpt>
      <trkpt lat="59.982417999" lon="23.4305750025">
        <ele>17.8</ele>
        <time>2012-03-20T18:20:13Z</time>
      </trkpt>
      <trkpt lat="59.98225363" lon="23.4306060994">
        <ele>17</ele>
        <time>2012-03-20T18:20:19Z</time>
      </trkpt>
      <trkpt lat="59.9820907697" lon="23.4305824624">
        <ele>16.6</ele>
        <time>2012-03-20T18:20:25Z</time>
      </trkpt>
      <trkpt lat="59.9819230479" lon="23.4305594122">
        <ele>16.4</ele>
        <time>2012-03-20T18:20:31Z</time>
      </trkpt>
      <trkpt lat="59.9817251512" lon="23.4306410519">
        <ele>16.2</ele>
        <time>2012-03-20T18:20:39Z</time>
      </trkpt>
      <trkpt lat="59.9816398235" lon="23.4308252022">
        <ele>16.2</ele>
        <time>2012-03-20T18:20:44Z</time>
      </trkpt>
      <trkpt lat="59.9815535737" lon="23.4311113603">
        <ele>16.2</ele>
        <time>2012-03-20T18:20:50Z</time>
      </trkpt>
      <trkpt lat="59.9814635521" lon="23.4314502405">
        <ele>16.2</ele>
        <time>2012-03-20T18:20:57Z</time>
      </trkpt>
      <trkpt lat="59.9813938147" lon="23.4317385779">
        <ele>16.2</ele>
        <time>2012-03-20T18:21:03Z</time>
      </trkpt>
      <trkpt lat="59.9813048827" lon="23.4320850856">
        <ele>16.2</ele>
        <time>2012-03-20T18:21:10Z</time>
      </trkpt>
      <trkpt lat="59.9812294456" lon="23.4323887619">
        <ele>16.2</ele>
        <time>2012-03-20T18:21:16Z</time>
      </trkpt>
      <trkpt lat="59.9811365742" lon="23.4327296537">
        <ele>16.2</ele>
        <time>2012-03-20T18:21:23Z</time>
      </trkpt>
      <trkpt lat="59.9810568623" lon="23.4330112018">
        <ele>16.2</ele>
        <time>2012-03-20T18:21:29Z</time>
      </trkpt>
      <trkpt lat="59.9809688524" lon="23.4333555302">
        <ele>16.2</ele>
        <time>2012-03-20T18:21:36Z</time>
      </trkpt>
      <trkpt lat="59.9808774058" lon="23.433697847">
        <ele>15</ele>
        <time>2012-03-20T18:21:43Z</time>
      </trkpt>
      <trkpt lat="59.9808019687" lon="23.4339987572">
        <ele>14.6</ele>
        <time>2012-03-20T18:21:49Z</time>
      </trkpt>
      <trkpt lat="59.9807247714" lon="23.4343057024">
        <ele>14.4</ele>
        <time>2012-03-20T18:21:55Z</time>
      </trkpt>
      <trkpt lat="59.9806378511" lon="23.4346551438">
        <ele>14.2</ele>
        <time>2012-03-20T18:22:02Z</time>
      </trkpt>
      <trkpt lat="59.9805645095" lon="23.4349415533">
        <ele>14.2</ele>
        <time>2012-03-20T18:22:08Z</time>
      </trkpt>
      <trkpt lat="59.9804842109" lon="23.4352504263">
        <ele>14.2</ele>
        <time>2012-03-20T18:22:14Z</time>
      </trkpt>
      <trkpt lat="59.9804070136" lon="23.4355008775">
        <ele>14.2</ele>
        <time>2012-03-20T18:22:18Z</time>
      </trkpt>
      <trkpt lat="59.9802477575" lon="23.4355262747">
        <ele>14.2</ele>
        <time>2012-03-20T18:22:22Z</time>
      </trkpt>
      <trkpt lat="59.9802050098" lon="23.4354860416">
        <ele>14</ele>
        <time>2012-03-20T18:22:23Z</time>
      </trkpt>
      <trkpt lat="59.979897897" lon="23.4353468182">
        <ele>14</ele>
        <time>2012-03-20T18:22:31Z</time>
      </trkpt>
      <trkpt lat="59.9798274052" lon="23.4353958523">
        <ele>14</ele>
        <time>2012-03-20T18:22:33Z</time>
      </trkpt>
      <trkpt lat="59.9796590967" lon="23.435550666">
        <ele>14</ele>
        <time>2012-03-20T18:22:38Z</time>
      </trkpt>
      <trkpt lat="59.9794949791" lon="23.4357088325">
        <ele>14</ele>
        <time>2012-03-20T18:22:43Z</time>
      </trkpt>
      <trkpt lat="59.9793938095" lon="23.4357919809">
        <ele>14</ele>
        <time>2012-03-20T18:22:46Z</time>
      </trkpt>
      <trkpt lat="59.9791734494" lon="23.4357982673">
        <ele>14</ele>
        <time>2012-03-20T18:22:52Z</time>
      </trkpt>
      <trkpt lat="59.9789861977" lon="23.4357612193">
        <ele>14</ele>
        <time>2012-03-20T18:22:57Z</time>
      </trkpt>
      <trkpt lat="59.9788090882" lon="23.4356984389">
        <ele>14</ele>
        <time>2012-03-20T18:23:02Z</time>
      </trkpt>
      <trkpt lat="59.978627201" lon="23.4355142886">
        <ele>14</ele>
        <time>2012-03-20T18:23:08Z</time>
      </trkpt>
      <trkpt lat="59.9784661847" lon="23.4352529409">
        <ele>14</ele>
        <time>2012-03-20T18:23:14Z</time>
      </trkpt>
      <trkpt lat="59.9783073477" lon="23.4350187506">
        <ele>14</ele>
        <time>2012-03-20T18:23:20Z</time>
      </trkpt>
      <trkpt lat="59.9781234488" lon="23.4347325087">
        <ele>14</ele>
        <time>2012-03-20T18:23:27Z</time>
      </trkpt>
      <trkpt lat="59.977990428" lon="23.434430006">
        <ele>14</ele>
        <time>2012-03-20T18:23:33Z</time>
      </trkpt>
      <trkpt lat="59.9778320101" lon="23.4341929658">
        <ele>14</ele>
        <time>2012-03-20T18:23:39Z</time>
      </trkpt>
      <trkpt lat="59.9776668867" lon="23.4339761261">
        <ele>14</ele>
        <time>2012-03-20T18:23:45Z</time>
      </trkpt>
      <trkpt lat="59.9775197005" lon="23.4337967534">
        <ele>14</ele>
        <time>2012-03-20T18:23:50Z</time>
      </trkpt>
      <trkpt lat="59.9773906192" lon="23.4336203144">
        <ele>14</ele>
        <time>2012-03-20T18:23:55Z</time>
      </trkpt>
      <trkpt lat="59.9772394936" lon="23.4334133653">
        <ele>14</ele>
        <time>2012-03-20T18:24:01Z</time>
      </trkpt>
      <trkpt lat="59.9770856857" lon="23.4331962741">
        <ele>14</ele>
        <time>2012-03-20T18:24:07Z</time>
      </trkpt>
      <trkpt lat="59.976948474" lon="23.43301204">
        <ele>14</ele>
        <time>2012-03-20T18:24:12Z</time>
      </trkpt>
      <trkpt lat="59.9767830153" lon="23.4328223576">
        <ele>14</ele>
        <time>2012-03-20T18:24:18Z</time>
      </trkpt>
      <trkpt lat="59.9766073307" lon="23.4326234551">
        <ele>14</ele>
        <time>2012-03-20T18:24:24Z</time>
      </trkpt>
      <trkpt lat="59.9764194085" lon="23.4324752631">
        <ele>14</ele>
        <time>2012-03-20T18:24:30Z</time>
      </trkpt>
      <trkpt lat="59.9762635052" lon="23.4324569905">
        <ele>14</ele>
        <time>2012-03-20T18:24:35Z</time>
      </trkpt>
      <trkpt lat="59.9760754153" lon="23.4325838087">
        <ele>14</ele>
        <time>2012-03-20T18:24:41Z</time>
      </trkpt>
      <trkpt lat="59.9758905944" lon="23.4327343476">
        <ele>13.4</ele>
        <time>2012-03-20T18:24:47Z</time>
      </trkpt>
      <trkpt lat="59.9757117247" lon="23.4328770075">
        <ele>12.8</ele>
        <time>2012-03-20T18:24:53Z</time>
      </trkpt>
      <trkpt lat="59.9755820567" lon="23.4328589026">
        <ele>12.4</ele>
        <time>2012-03-20T18:24:57Z</time>
      </trkpt>
      <trkpt lat="59.9754007562" lon="23.4326775183">
        <ele>12.2</ele>
        <time>2012-03-20T18:25:03Z</time>
      </trkpt>
      <trkpt lat="59.9752224732" lon="23.4324654563">
        <ele>12.2</ele>
        <time>2012-03-20T18:25:09Z</time>
      </trkpt>
      <trkpt lat="59.9750409212" lon="23.4322694874">
        <ele>12</ele>
        <time>2012-03-20T18:25:15Z</time>
      </trkpt>
      <trkpt lat="59.9749047153" lon="23.4321164339">
        <ele>11.6</ele>
        <time>2012-03-20T18:25:20Z</time>
      </trkpt>
      <trkpt lat="59.97473121" lon="23.4319319483">
        <ele>10.8</ele>
        <time>2012-03-20T18:25:26Z</time>
      </trkpt>
      <trkpt lat="59.9746918151" lon="23.4318441898">
        <ele>10.8</ele>
        <time>2012-03-20T18:25:28Z</time>
      </trkpt>
      <trkpt lat="59.9747042203" lon="23.4315888772">
        <ele>10.6</ele>
        <time>2012-03-20T18:25:32Z</time>
      </trkpt>
      <trkpt lat="59.9747110096" lon="23.4315184692">
        <ele>10.4</ele>
        <time>2012-03-20T18:25:33Z</time>
      </trkpt>
      <trkpt lat="59.9747235825" lon="23.4311888929">
        <ele>10.2</ele>
        <time>2012-03-20T18:25:38Z</time>
      </trkpt>
      <trkpt lat="59.9747075731" lon="23.4307806944">
        <ele>10.2</ele>
        <time>2012-03-20T18:25:44Z</time>
      </trkpt>
      <trkpt lat="59.9746830979" lon="23.4304688877">
        <ele>10</ele>
        <time>2012-03-20T18:25:49Z</time>
      </trkpt>
      <trkpt lat="59.974587209" lon="23.4302036005">
        <ele>10</ele>
        <time>2012-03-20T18:25:54Z</time>
      </trkpt>
      <trkpt lat="59.9744360833" lon="23.4299620342">
        <ele>10</ele>
        <time>2012-03-20T18:26:00Z</time>
      </trkpt>
      <trkpt lat="59.9742771625" lon="23.4297295203">
        <ele>10</ele>
        <time>2012-03-20T18:26:06Z</time>
      </trkpt>
      <trkpt lat="59.9741700418" lon="23.4296001037">
        <ele>10</ele>
        <time>2012-03-20T18:26:10Z</time>
      </trkpt>
      <trkpt lat="59.9740050022" lon="23.4293771452">
        <ele>10</ele>
        <time>2012-03-20T18:26:16Z</time>
      </trkpt>
      <trkpt lat="59.9738614203" lon="23.4292028855">
        <ele>10</ele>
        <time>2012-03-20T18:26:21Z</time>
      </trkpt>
      <trkpt lat="59.973695291" lon="23.4289880574">
        <ele>10</ele>
        <time>2012-03-20T18:26:27Z</time>
      </trkpt>
      <trkpt lat="59.9735650363" lon="23.428803488">
        <ele>10</ele>
        <time>2012-03-20T18:26:32Z</time>
      </trkpt>
      <trkpt lat="59.9733876753" lon="23.4286072677">
        <ele>10</ele>
        <time>2012-03-20T18:26:38Z</time>
      </trkpt>
      <trkpt lat="59.9732251502" lon="23.4285211018">
        <ele>10</ele>
        <time>2012-03-20T18:26:43Z</time>
      </trkpt>
      <trkpt lat="59.9730976615" lon="23.4284671223">
        <ele>10.4</ele>
        <time>2012-03-20T18:26:47Z</time>
      </trkpt>
      <trkpt lat="59.9729096555" lon="23.4285143124">
        <ele>11.2</ele>
        <time>2012-03-20T18:26:53Z</time>
      </trkpt>
      <trkpt lat="59.97272232" lon="23.4286396218">
        <ele>11.6</ele>
        <time>2012-03-20T18:26:59Z</time>
      </trkpt>
      <trkpt lat="59.9725261836" lon="23.4286961158">
        <ele>11.8</ele>
        <time>2012-03-20T18:27:05Z</time>
      </trkpt>
      <trkpt lat="59.9723238445" lon="23.4287241114">
        <ele>11.8</ele>
        <time>2012-03-20T18:27:11Z</time>
      </trkpt>
      <trkpt lat="59.9721196614" lon="23.4287271289">
        <ele>12</ele>
        <time>2012-03-20T18:27:17Z</time>
      </trkpt>
      <trkpt lat="59.9719275483" lon="23.4287732293">
        <ele>12</ele>
        <time>2012-03-20T18:27:23Z</time>
      </trkpt>
      <trkpt lat="59.9717325015" lon="23.4288510972">
        <ele>11.4</ele>
        <time>2012-03-20T18:27:29Z</time>
      </trkpt>
      <trkpt lat="59.9715802862" lon="23.4290028095">
        <ele>10.8</ele>
        <time>2012-03-20T18:27:34Z</time>
      </trkpt>
      <trkpt lat="59.9714463434" lon="23.4292942482">
        <ele>10.4</ele>
        <time>2012-03-20T18:27:40Z</time>
      </trkpt>
      <trkpt lat="59.9714493609" lon="23.4293737924">
        <ele>10.4</ele>
        <time>2012-03-20T18:27:41Z</time>
      </trkpt>
      <trkpt lat="59.9715216967" lon="23.4296945678">
        <ele>10.2</ele>
        <time>2012-03-20T18:27:46Z</time>
      </trkpt>
      <trkpt lat="59.9716094552" lon="23.4300369684">
        <ele>10</ele>
        <time>2012-03-20T18:27:52Z</time>
      </trkpt>
      <trkpt lat="59.9716867363" lon="23.4303730826">
        <ele>10</ele>
        <time>2012-03-20T18:27:58Z</time>
      </trkpt>
      <trkpt lat="59.9717456611" lon="23.4306693827">
        <ele>10</ele>
        <time>2012-03-20T18:28:03Z</time>
      </trkpt>
      <trkpt lat="59.9718165719" lon="23.4309541997">
        <ele>10</ele>
        <time>2012-03-20T18:28:08Z</time>
      </trkpt>
      <trkpt lat="59.9719138858" lon="23.4313017133">
        <ele>10.2</ele>
        <time>2012-03-20T18:28:14Z</time>
      </trkpt>
      <trkpt lat="59.9720117026" lon="23.4315630609">
        <ele>11</ele>
        <time>2012-03-20T18:28:19Z</time>
      </trkpt>
      <trkpt lat="59.9721072562" lon="23.4318058007">
        <ele>11.4</ele>
        <time>2012-03-20T18:28:24Z</time>
      </trkpt>
      <trkpt lat="59.9722370919" lon="23.4321174398">
        <ele>11.6</ele>
        <time>2012-03-20T18:28:30Z</time>
      </trkpt>
      <trkpt lat="59.972274978" lon="23.4325476827">
        <ele>12.4</ele>
        <time>2012-03-20T18:28:38Z</time>
      </trkpt>
      <trkpt lat="59.9722520955" lon="23.4325986446">
        <ele>12.6</ele>
        <time>2012-03-20T18:28:39Z</time>
      </trkpt>
      <trkpt lat="59.9721091002" lon="23.4328709726">
        <ele>13.2</ele>
        <time>2012-03-20T18:28:45Z</time>
      </trkpt>
      <trkpt lat="59.9719830365" lon="23.4331595614">
        <ele>13.6</ele>
        <time>2012-03-20T18:28:51Z</time>
      </trkpt>
      <trkpt lat="59.9720010575" lon="23.4334039776">
        <ele>13.8</ele>
        <time>2012-03-20T18:28:55Z</time>
      </trkpt>
      <trkpt lat="59.9720956054" lon="23.4335999464">
        <ele>13.8</ele>
        <time>2012-03-20T18:28:59Z</time>
      </trkpt>
      <trkpt lat="59.9722484074" lon="23.4338441112">
        <ele>14</ele>
        <time>2012-03-20T18:29:05Z</time>
      </trkpt>
      <trkpt lat="59.9723263591" lon="23.4339710131">
        <ele>14</ele>
        <time>2012-03-20T18:29:08Z</time>
      </trkpt>
      <trkpt lat="59.9724016285" lon="23.4341088116">
        <ele>14</ele>
        <time>2012-03-20T18:29:11Z</time>
      </trkpt>
      <trkpt lat="59.9724895547" lon="23.4343580055">
        <ele>14</ele>
        <time>2012-03-20T18:29:16Z</time>
      </trkpt>
      <trkpt lat="59.9725078272" lon="23.4346680519">
        <ele>14</ele>
        <time>2012-03-20T18:29:21Z</time>
      </trkpt>
      <trkpt lat="59.9724155425" lon="23.4351327445">
        <ele>14</ele>
        <time>2012-03-20T18:29:29Z</time>
      </trkpt>
      <trkpt lat="59.972308338" lon="23.4353554516">
        <ele>14</ele>
        <time>2012-03-20T18:29:34Z</time>
      </trkpt>
      <trkpt lat="59.972147657" lon="23.4355507498">
        <ele>14</ele>
        <time>2012-03-20T18:29:40Z</time>
      </trkpt>
      <trkpt lat="59.972005919" lon="23.4356829324">
        <ele>14</ele>
        <time>2012-03-20T18:29:45Z</time>
      </trkpt>
      <trkpt lat="59.9718371076" lon="23.4358672504">
        <ele>14</ele>
        <time>2012-03-20T18:29:51Z</time>
      </trkpt>
      <trkpt lat="59.9716763427" lon="23.4360333796">
        <ele>14</ele>
        <time>2012-03-20T18:29:57Z</time>
      </trkpt>
      <trkpt lat="59.9715255524" lon="23.4360847607">
        <ele>13.4</ele>
        <time>2012-03-20T18:30:02Z</time>
      </trkpt>
      <trkpt lat="59.9713355347" lon="23.436058693">
        <ele>12.8</ele>
        <time>2012-03-20T18:30:08Z</time>
      </trkpt>
      <trkpt lat="59.971139063" lon="23.4360607884">
        <ele>12.4</ele>
        <time>2012-03-20T18:30:14Z</time>
      </trkpt>
      <trkpt lat="59.9709798907" lon="23.4360366486">
        <ele>12.2</ele>
        <time>2012-03-20T18:30:19Z</time>
      </trkpt>
      <trkpt lat="59.9708200478" lon="23.4360248301">
        <ele>12.2</ele>
        <time>2012-03-20T18:30:24Z</time>
      </trkpt>
      <trkpt lat="59.9706248334" lon="23.4360388279">
        <ele>12</ele>
        <time>2012-03-20T18:30:30Z</time>
      </trkpt>
      <trkpt lat="59.9704683433" lon="23.4360639736">
        <ele>12</ele>
        <time>2012-03-20T18:30:35Z</time>
      </trkpt>
      <trkpt lat="59.9702778227" lon="23.4361344653">
        <ele>12</ele>
        <time>2012-03-20T18:30:41Z</time>
      </trkpt>
      <trkpt lat="59.9700955164" lon="23.4362099863">
        <ele>12</ele>
        <time>2012-03-20T18:30:47Z</time>
      </trkpt>
      <trkpt lat="59.969909522" lon="23.4362841661">
        <ele>12</ele>
        <time>2012-03-20T18:30:53Z</time>
      </trkpt>
      <trkpt lat="59.9697514394" lon="23.43634812">
        <ele>12</ele>
        <time>2012-03-20T18:30:58Z</time>
      </trkpt>
      <trkpt lat="59.9695631819" lon="23.4364559112">
        <ele>12</ele>
        <time>2012-03-20T18:31:04Z</time>
      </trkpt>
      <trkpt lat="59.969454804" lon="23.4365237208">
        <ele>12</ele>
        <time>2012-03-20T18:31:08Z</time>
      </trkpt>
      <trkpt lat="59.9693102162" lon="23.4365243075">
        <ele>12</ele>
        <time>2012-03-20T18:31:13Z</time>
      </trkpt>
      <trkpt lat="59.9691798776" lon="23.4364889359">
        <ele>12</ele>
        <time>2012-03-20T18:31:17Z</time>
      </trkpt>
      <trkpt lat="59.9690717511" lon="23.4364626167">
        <ele>12</ele>
        <time>2012-03-20T18:31:21Z</time>
      </trkpt>
      <trkpt lat="59.9686063042" lon="23.4363061267">
        <ele>13.2</ele>
        <time>2012-03-20T18:31:37Z</time>
      </trkpt>
      <trkpt lat="59.9684529155" lon="23.436117031">
        <ele>14</ele>
        <time>2012-03-20T18:31:43Z</time>
      </trkpt>
      <trkpt lat="59.9682819247" lon="23.4359362334">
        <ele>15</ele>
        <time>2012-03-20T18:31:49Z</time>
      </trkpt>
      <trkpt lat="59.9681191482" lon="23.4357567769">
        <ele>16.2</ele>
        <time>2012-03-20T18:31:55Z</time>
      </trkpt>
      <trkpt lat="59.9679831938" lon="23.4355945872">
        <ele>17.2</ele>
        <time>2012-03-20T18:32:00Z</time>
      </trkpt>
      <trkpt lat="59.9678498378" lon="23.435434912">
        <ele>18.2</ele>
        <time>2012-03-20T18:32:05Z</time>
      </trkpt>
      <trkpt lat="59.9677290546" lon="23.4352580539">
        <ele>19.2</ele>
        <time>2012-03-20T18:32:10Z</time>
      </trkpt>
      <trkpt lat="59.9675672839" lon="23.435035263">
        <ele>19.8</ele>
        <time>2012-03-20T18:32:16Z</time>
      </trkpt>
      <trkpt lat="59.9674465845" lon="23.434843988">
        <ele>20</ele>
        <time>2012-03-20T18:32:21Z</time>
      </trkpt>
      <trkpt lat="59.9672799524" lon="23.4346009967">
        <ele>20.2</ele>
        <time>2012-03-20T18:32:27Z</time>
      </trkpt>
      <trkpt lat="59.9670108096" lon="23.4342744379">
        <ele>20.4</ele>
        <time>2012-03-20T18:32:37Z</time>
      </trkpt>
      <trkpt lat="59.9668694907" lon="23.4340512279">
        <ele>20.8</ele>
        <time>2012-03-20T18:32:42Z</time>
      </trkpt>
      <trkpt lat="59.9667574247" lon="23.4339038741">
        <ele>21.4</ele>
        <time>2012-03-20T18:32:46Z</time>
      </trkpt>
      <trkpt lat="59.966579477" lon="23.4337350626">
        <ele>22</ele>
        <time>2012-03-20T18:32:52Z</time>
      </trkpt>
      <trkpt lat="59.9664221487" lon="23.4336355695">
        <ele>22.2</ele>
        <time>2012-03-20T18:32:57Z</time>
      </trkpt>
      <trkpt lat="59.9662764713" lon="23.4335146187">
        <ele>22.4</ele>
        <time>2012-03-20T18:33:02Z</time>
      </trkpt>
      <trkpt lat="59.96614739" lon="23.4333582124">
        <ele>22.4</ele>
        <time>2012-03-20T18:33:07Z</time>
      </trkpt>
      <trkpt lat="59.9660025508" lon="23.4331834498">
        <ele>22.6</ele>
        <time>2012-03-20T18:33:12Z</time>
      </trkpt>
      <trkpt lat="59.9658629922" lon="23.4329842959">
        <ele>22.6</ele>
        <time>2012-03-20T18:33:17Z</time>
      </trkpt>
      <trkpt lat="59.9658377627" lon="23.4329657719">
        <ele>22.6</ele>
        <time>2012-03-20T18:33:18Z</time>
      </trkpt>
      <trkpt lat="59.9658094318" lon="23.4331020616">
        <ele>22.6</ele>
        <time>2012-03-20T18:33:22Z</time>
      </trkpt>
      <trkpt lat="59.9658053247" lon="23.4334549395">
        <ele>22.6</ele>
        <time>2012-03-20T18:33:28Z</time>
      </trkpt>
      <trkpt lat="59.9658078393" lon="23.4337769721">
        <ele>21.8</ele>
        <time>2012-03-20T18:33:33Z</time>
      </trkpt>
      <trkpt lat="59.9658227591" lon="23.4340715959">
        <ele>21.4</ele>
        <time>2012-03-20T18:33:38Z</time>
      </trkpt>
      <trkpt lat="59.9658087613" lon="23.4343271601">
        <ele>21</ele>
        <time>2012-03-20T18:33:43Z</time>
      </trkpt>
      <trkpt lat="59.9658089289" lon="23.4346728296">
        <ele>20.8</ele>
        <time>2012-03-20T18:33:48Z</time>
      </trkpt>
      <trkpt lat="59.9658330688" lon="23.4349427268">
        <ele>20.8</ele>
        <time>2012-03-20T18:33:52Z</time>
      </trkpt>
      <trkpt lat="59.965840864" lon="23.4350633423">
        <ele>20.8</ele>
        <time>2012-03-20T18:33:54Z</time>
      </trkpt>
      <trkpt lat="59.9658629084" lon="23.4352650109">
        <ele>20.6</ele>
        <time>2012-03-20T18:33:57Z</time>
      </trkpt>
      <trkpt lat="59.9659140379" lon="23.4355885522">
        <ele>20.6</ele>
        <time>2012-03-20T18:34:02Z</time>
      </trkpt>
      <trkpt lat="59.9659365853" lon="23.4358483073">
        <ele>20.6</ele>
        <time>2012-03-20T18:34:06Z</time>
      </trkpt>
      <trkpt lat="59.9659273652" lon="23.436101273">
        <ele>20.6</ele>
        <time>2012-03-20T18:34:10Z</time>
      </trkpt>
      <trkpt lat="59.9659192347" lon="23.4364061227">
        <ele>20.6</ele>
        <time>2012-03-20T18:34:15Z</time>
      </trkpt>
      <trkpt lat="59.9659317238" lon="23.43672321">
        <ele>20.6</ele>
        <time>2012-03-20T18:34:20Z</time>
      </trkpt>
      <trkpt lat="59.9659484876" lon="23.4370411355">
        <ele>20.6</ele>
        <time>2012-03-20T18:34:25Z</time>
      </trkpt>
      <trkpt lat="59.9659836915" lon="23.4373579713">
        <ele>20.6</ele>
        <time>2012-03-20T18:34:30Z</time>
      </trkpt>
      <trkpt lat="59.9660011259" lon="23.4376614799">
        <ele>20.6</ele>
        <time>2012-03-20T18:34:35Z</time>
      </trkpt>
      <trkpt lat="59.9659789977" lon="23.4379113443">
        <ele>20.6</ele>
        <time>2012-03-20T18:34:39Z</time>
      </trkpt>
      <trkpt lat="59.9659748905" lon="23.43796985">
        <ele>20.6</ele>
        <time>2012-03-20T18:34:40Z</time>
      </trkpt>
      <trkpt lat="59.9660224159" lon="23.4382793935">
        <ele>20.6</ele>
        <time>2012-03-20T18:34:45Z</time>
      </trkpt>
      <trkpt lat="59.9660819274" lon="23.4384737698">
        <ele>20.6</ele>
        <time>2012-03-20T18:34:49Z</time>
      </trkpt>
      <trkpt lat="59.966091818" lon="23.4385355444">
        <ele>20.6</ele>
        <time>2012-03-20T18:34:50Z</time>
      </trkpt>
      <trkpt lat="59.9661255971" lon="23.4387798768">
        <ele>20.6</ele>
        <time>2012-03-20T18:34:54Z</time>
      </trkpt>
      <trkpt lat="59.9661411036" lon="23.4390919349">
        <ele>20.6</ele>
        <time>2012-03-20T18:34:59Z</time>
      </trkpt>
      <trkpt lat="59.9661551852" lon="23.4393532826">
        <ele>20.6</ele>
        <time>2012-03-20T18:35:03Z</time>
      </trkpt>
      <trkpt lat="59.9661811691" lon="23.4397514228">
        <ele>20.6</ele>
        <time>2012-03-20T18:35:09Z</time>
      </trkpt>
      <trkpt lat="59.9661847733" lon="23.4399905584">
        <ele>20.6</ele>
        <time>2012-03-20T18:35:13Z</time>
      </trkpt>
      <trkpt lat="59.9661632318" lon="23.4403187936">
        <ele>20.6</ele>
        <time>2012-03-20T18:35:18Z</time>
      </trkpt>
      <trkpt lat="59.9661186401" lon="23.4406907824">
        <ele>20.6</ele>
        <time>2012-03-20T18:35:24Z</time>
      </trkpt>
      <trkpt lat="59.9660832685" lon="23.4410231247">
        <ele>20.6</ele>
        <time>2012-03-20T18:35:30Z</time>
      </trkpt>
      <trkpt lat="59.9660439574" lon="23.4414063452">
        <ele>20.6</ele>
        <time>2012-03-20T18:35:37Z</time>
      </trkpt>
      <trkpt lat="59.9660664209" lon="23.4417342451">
        <ele>20.6</ele>
        <time>2012-03-20T18:35:42Z</time>
      </trkpt>
      <trkpt lat="59.9661530897" lon="23.4420941639">
        <ele>20.6</ele>
        <time>2012-03-20T18:35:48Z</time>
      </trkpt>
      <trkpt lat="59.9662188877" lon="23.4423825012">
        <ele>20.6</ele>
        <time>2012-03-20T18:35:53Z</time>
      </trkpt>
      <trkpt lat="59.9662892118" lon="23.4426689108">
        <ele>20.6</ele>
        <time>2012-03-20T18:35:58Z</time>
      </trkpt>
      <trkpt lat="59.9663990147" lon="23.4429734252">
        <ele>20.6</ele>
        <time>2012-03-20T18:36:04Z</time>
      </trkpt>
      <trkpt lat="59.966532706" lon="23.443182805">
        <ele>20.6</ele>
        <time>2012-03-20T18:36:09Z</time>
      </trkpt>
      <trkpt lat="59.9667075524" lon="23.443399561">
        <ele>20.6</ele>
        <time>2012-03-20T18:36:15Z</time>
      </trkpt>
      <trkpt lat="59.9668580075" lon="23.4436143891">
        <ele>20.6</ele>
        <time>2012-03-20T18:36:21Z</time>
      </trkpt>
      <trkpt lat="59.9669291699" lon="23.4436998845">
        <ele>20.6</ele>
        <time>2012-03-20T18:36:24Z</time>
      </trkpt>
      <trkpt lat="59.9670745958" lon="23.4439197417">
        <ele>20.6</ele>
        <time>2012-03-20T18:36:29Z</time>
      </trkpt>
      <trkpt lat="59.9671639469" lon="23.4441593802">
        <ele>20.6</ele>
        <time>2012-03-20T18:36:34Z</time>
      </trkpt>
      <trkpt lat="59.9672666252" lon="23.4444682532">
        <ele>20.6</ele>
        <time>2012-03-20T18:36:39Z</time>
      </trkpt>
      <trkpt lat="59.9673422299" lon="23.4448159344">
        <ele>20.6</ele>
        <time>2012-03-20T18:36:44Z</time>
      </trkpt>
      <trkpt lat="59.9673656154" lon="23.4451506237">
        <ele>20.6</ele>
        <time>2012-03-20T18:36:49Z</time>
      </trkpt>
      <trkpt lat="59.9673561438" lon="23.4454553896">
        <ele>20.6</ele>
        <time>2012-03-20T18:36:54Z</time>
      </trkpt>
      <trkpt lat="59.9673534616" lon="23.4455911764">
        <ele>20.6</ele>
        <time>2012-03-20T18:36:58Z</time>
      </trkpt>
      <trkpt lat="59.9673456665" lon="23.4456860595">
        <ele>20.6</ele>
        <time>2012-03-20T18:37:03Z</time>
      </trkpt>
      <trkpt lat="59.9673422299" lon="23.4457936831">
        <ele>20.6</ele>
        <time>2012-03-20T18:37:11Z</time>
      </trkpt>
      <trkpt lat="59.9673422299" lon="23.4458126262">
        <ele>20.6</ele>
        <time>2012-03-20T18:37:12Z</time>
      </trkpt>
      <trkpt lat="59.9673281483" lon="23.4458311502">
        <ele>20.6</ele>
        <time>2012-03-20T18:37:17Z</time>
      </trkpt>
      <trkpt lat="59.9673256337" lon="23.44592662">
        <ele>19.2</ele>
        <time>2012-03-20T18:37:38Z</time>
      </trkpt>
      <trkpt lat="59.9673221971" lon="23.4459709603">
        <ele>18.6</ele>
        <time>2012-03-20T18:37:40Z</time>
      </trkpt>
      <trkpt lat="59.9672997337" lon="23.4460754826">
        <ele>17.8</ele>
        <time>2012-03-20T18:37:44Z</time>
      </trkpt>
      <trkpt lat="59.9672895077" lon="23.4462723734">
        <ele>16.6</ele>
        <time>2012-03-20T18:37:51Z</time>
      </trkpt>
      <trkpt lat="59.967305601" lon="23.4464695995">
        <ele>15.6</ele>
        <time>2012-03-20T18:37:56Z</time>
      </trkpt>
      <trkpt lat="59.9673382904" lon="23.4467132613">
        <ele>15.2</ele>
        <time>2012-03-20T18:38:01Z</time>
      </trkpt>
      <trkpt lat="59.9673721533" lon="23.4469466972">
        <ele>14.8</ele>
        <time>2012-03-20T18:38:06Z</time>
      </trkpt>
      <trkpt lat="59.9673660345" lon="23.447205195">
        <ele>14.6</ele>
        <time>2012-03-20T18:38:11Z</time>
      </trkpt>
      <trkpt lat="59.9672662899" lon="23.4474891738">
        <ele>13.4</ele>
        <time>2012-03-20T18:38:18Z</time>
      </trkpt>
      <trkpt lat="59.9671825547" lon="23.4477006491">
        <ele>12.8</ele>
        <time>2012-03-20T18:38:23Z</time>
      </trkpt>
      <trkpt lat="59.9671141584" lon="23.4478656888">
        <ele>12.6</ele>
        <time>2012-03-20T18:38:27Z</time>
      </trkpt>
      <trkpt lat="59.9670115639" lon="23.4481918285">
        <ele>12.4</ele>
        <time>2012-03-20T18:38:34Z</time>
      </trkpt>
      <trkpt lat="59.9669010905" lon="23.4484909785">
        <ele>12.2</ele>
        <time>2012-03-20T18:38:41Z</time>
      </trkpt>
      <trkpt lat="59.9667722607" lon="23.448792224">
        <ele>12.2</ele>
        <time>2012-03-20T18:38:49Z</time>
      </trkpt>
      <trkpt lat="59.9666465322" lon="23.4491016837">
        <ele>12.2</ele>
        <time>2012-03-20T18:38:57Z</time>
      </trkpt>
      <trkpt lat="59.966529437" lon="23.449374766">
        <ele>12.2</ele>
        <time>2012-03-20T18:39:04Z</time>
      </trkpt>
      <trkpt lat="59.966405804" lon="23.4496996485">
        <ele>12.2</ele>
        <time>2012-03-20T18:39:11Z</time>
      </trkpt>
      <trkpt lat="59.9663400899" lon="23.4499856389">
        <ele>12.2</ele>
        <time>2012-03-20T18:39:17Z</time>
      </trkpt>
      <trkpt lat="59.9663438618" lon="23.4500278837">
        <ele>12.2</ele>
        <time>2012-03-20T18:39:18Z</time>
      </trkpt>
      <trkpt lat="59.9664142697" lon="23.4501716333">
        <ele>12.2</ele>
        <time>2012-03-20T18:39:22Z</time>
      </trkpt>
      <trkpt lat="59.966435895" lon="23.4501955217">
        <ele>12.2</ele>
        <time>2012-03-20T18:39:23Z</time>
      </trkpt>
      <trkpt lat="59.9666061314" lon="23.4503469826">
        <ele>12.2</ele>
        <time>2012-03-20T18:39:30Z</time>
      </trkpt>
      <trkpt lat="59.9667503001" lon="23.450468604">
        <ele>12.2</ele>
        <time>2012-03-20T18:39:36Z</time>
      </trkpt>
      <trkpt lat="59.9667748591" lon="23.4504873794">
        <ele>12.2</ele>
        <time>2012-03-20T18:39:37Z</time>
      </trkpt>
      <trkpt lat="59.9668941335" lon="23.4505898901">
        <ele>12.2</ele>
        <time>2012-03-20T18:39:42Z</time>
      </trkpt>
      <trkpt lat="59.9670461812" lon="23.4506984357">
        <ele>11.4</ele>
        <time>2012-03-20T18:39:48Z</time>
      </trkpt>
      <trkpt lat="59.9672055211" lon="23.4507953304">
        <ele>10.8</ele>
        <time>2012-03-20T18:39:54Z</time>
      </trkpt>
      <trkpt lat="59.9673537131" lon="23.4508808258">
        <ele>10.6</ele>
        <time>2012-03-20T18:40:00Z</time>
      </trkpt>
      <trkpt lat="59.9674751668" lon="23.4509516529">
        <ele>10.4</ele>
        <time>2012-03-20T18:40:05Z</time>
      </trkpt>
      <trkpt lat="59.9675806111" lon="23.4510848413">
        <ele>10.2</ele>
        <time>2012-03-20T18:40:10Z</time>
      </trkpt>
      <trkpt lat="59.9677257018" lon="23.4513278326">
        <ele>10.2</ele>
        <time>2012-03-20T18:40:17Z</time>
      </trkpt>
      <trkpt lat="59.9679225088" lon="23.4517854005">
        <ele>10.2</ele>
        <time>2012-03-20T18:40:28Z</time>
      </trkpt>
      <trkpt lat="59.9680294619" lon="23.4520260448">
        <ele>10.2</ele>
        <time>2012-03-20T18:40:34Z</time>
      </trkpt>
      <trkpt lat="59.9681257699" lon="23.452269539">
        <ele>10.2</ele>
        <time>2012-03-20T18:40:40Z</time>
      </trkpt>
      <trkpt lat="59.968242865" lon="23.4525655039">
        <ele>10.2</ele>
        <time>2012-03-20T18:40:47Z</time>
      </trkpt>
      <trkpt lat="59.9683621395" lon="23.4528559367">
        <ele>10.2</ele>
        <time>2012-03-20T18:40:54Z</time>
      </trkpt>
      <trkpt lat="59.9684599563" lon="23.4530640593">
        <ele>10.2</ele>
        <time>2012-03-20T18:40:59Z</time>
      </trkpt>
      <trkpt lat="59.9685931446" lon="23.4533460264">
        <ele>10.2</ele>
        <time>2012-03-20T18:41:06Z</time>
      </trkpt>
      <trkpt lat="59.9686996786" lon="23.4535850782">
        <ele>10.2</ele>
        <time>2012-03-20T18:41:12Z</time>
      </trkpt>
      <trkpt lat="59.9688038656" lon="23.4538299135">
        <ele>10.2</ele>
        <time>2012-03-20T18:41:18Z</time>
      </trkpt>
      <trkpt lat="59.9689276663" lon="23.4541132217">
        <ele>10.2</ele>
        <time>2012-03-20T18:41:25Z</time>
      </trkpt>
      <trkpt lat="59.9690217112" lon="23.454347412">
        <ele>10.2</ele>
        <time>2012-03-20T18:41:31Z</time>
      </trkpt>
      <trkpt lat="59.9691024289" lon="23.4545369268">
        <ele>10.2</ele>
        <time>2012-03-20T18:41:36Z</time>
      </trkpt>
      <trkpt lat="59.9692169256" lon="23.4547561135">
        <ele>10.2</ele>
        <time>2012-03-20T18:41:42Z</time>
      </trkpt>
      <trkpt lat="59.9693363677" lon="23.4550281899">
        <ele>10.2</ele>
        <time>2012-03-20T18:41:49Z</time>
      </trkpt>
      <trkpt lat="59.9694517865" lon="23.4553042897">
        <ele>10.2</ele>
        <time>2012-03-20T18:41:56Z</time>
      </trkpt>
      <trkpt lat="59.9695879085" lon="23.4556021825">
        <ele>10.2</ele>
        <time>2012-03-20T18:42:04Z</time>
      </trkpt>
      <trkpt lat="59.9697702149" lon="23.4557440042">
        <ele>10.2</ele>
        <time>2012-03-20T18:42:11Z</time>
      </trkpt>
      <trkpt lat="59.9698952728" lon="23.455726989">
        <ele>10.2</ele>
        <time>2012-03-20T18:42:16Z</time>
      </trkpt>
      <trkpt lat="59.970066515" lon="23.4556184433">
        <ele>10.2</ele>
        <time>2012-03-20T18:42:23Z</time>
      </trkpt>
      <trkpt lat="59.9702592987" lon="23.4555360493">
        <ele>10.2</ele>
        <time>2012-03-20T18:42:30Z</time>
      </trkpt>
      <trkpt lat="59.9704401801" lon="23.4554402442">
        <ele>10.2</ele>
        <time>2012-03-20T18:42:37Z</time>
      </trkpt>
      <trkpt lat="59.9707167828" lon="23.4556198683">
        <ele>10.2</ele>
        <time>2012-03-20T18:42:48Z</time>
      </trkpt>
      <trkpt lat="59.9708291003" lon="23.4557335268">
        <ele>10.2</ele>
        <time>2012-03-20T18:42:53Z</time>
      </trkpt>
      <trkpt lat="59.9709823214" lon="23.4558641168">
        <ele>10.2</ele>
        <time>2012-03-20T18:42:59Z</time>
      </trkpt>
      <trkpt lat="59.9711255681" lon="23.456014991">
        <ele>10.2</ele>
        <time>2012-03-20T18:43:05Z</time>
      </trkpt>
      <trkpt lat="59.9712953854" lon="23.4562143964">
        <ele>11</ele>
        <time>2012-03-20T18:43:12Z</time>
      </trkpt>
      <trkpt lat="59.9714183479" lon="23.4563453217">
        <ele>11.6</ele>
        <time>2012-03-20T18:43:17Z</time>
      </trkpt>
      <trkpt lat="59.9715913503" lon="23.4565141332">
        <ele>12.2</ele>
        <time>2012-03-20T18:43:24Z</time>
      </trkpt>
      <trkpt lat="59.971735519" lon="23.4566712938">
        <ele>13.2</ele>
        <time>2012-03-20T18:43:30Z</time>
      </trkpt>
      <trkpt lat="59.9718371914" lon="23.4567900653">
        <ele>13.6</ele>
        <time>2012-03-20T18:43:35Z</time>
      </trkpt>
      <trkpt lat="59.9719751575" lon="23.4568872954">
        <ele>13.8</ele>
        <time>2012-03-20T18:43:40Z</time>
      </trkpt>
      <trkpt lat="59.9720846251" lon="23.4570078271">
        <ele>14</ele>
        <time>2012-03-20T18:43:45Z</time>
      </trkpt>
      <trkpt lat="59.9720733933" lon="23.4572010299">
        <ele>14.8</ele>
        <time>2012-03-20T18:43:49Z</time>
      </trkpt>
      <trkpt lat="59.971985551" lon="23.4574829132">
        <ele>15.4</ele>
        <time>2012-03-20T18:43:55Z</time>
      </trkpt>
      <trkpt lat="59.9719145563" lon="23.4577286705">
        <ele>15.8</ele>
        <time>2012-03-20T18:44:00Z</time>
      </trkpt>
      <trkpt lat="59.971856805" lon="23.4579647048">
        <ele>16</ele>
        <time>2012-03-20T18:44:05Z</time>
      </trkpt>
      <trkpt lat="59.9717572281" lon="23.4583074407">
        <ele>16.2</ele>
        <time>2012-03-20T18:44:12Z</time>
      </trkpt>
      <trkpt lat="59.9716750855" lon="23.458614805">
        <ele>16.2</ele>
        <time>2012-03-20T18:44:18Z</time>
      </trkpt>
      <trkpt lat="59.971558158" lon="23.4590036413">
        <ele>16.2</ele>
        <time>2012-03-20T18:44:26Z</time>
      </trkpt>
      <trkpt lat="59.9714973892" lon="23.4592600436">
        <ele>16.8</ele>
        <time>2012-03-20T18:44:31Z</time>
      </trkpt>
      <trkpt lat="59.9714198566" lon="23.4596003488">
        <ele>17.6</ele>
        <time>2012-03-20T18:44:38Z</time>
      </trkpt>
      <trkpt lat="59.97137384" lon="23.4598058729">
        <ele>17.8</ele>
        <time>2012-03-20T18:44:42Z</time>
      </trkpt>
      <trkpt lat="59.9713129874" lon="23.4601253072">
        <ele>18</ele>
        <time>2012-03-20T18:44:48Z</time>
      </trkpt>
      <trkpt lat="59.971263618" lon="23.46037777">
        <ele>18.2</ele>
        <time>2012-03-20T18:44:53Z</time>
      </trkpt>
      <trkpt lat="59.9712120693" lon="23.4606896605">
        <ele>18.2</ele>
        <time>2012-03-20T18:44:59Z</time>
      </trkpt>
      <trkpt lat="59.9711523064" lon="23.4610446339">
        <ele>18.2</ele>
        <time>2012-03-20T18:45:06Z</time>
      </trkpt>
      <trkpt lat="59.9711212095" lon="23.4612551035">
        <ele>18.2</ele>
        <time>2012-03-20T18:45:11Z</time>
      </trkpt>
      <trkpt lat="59.9710520588" lon="23.4615836739">
        <ele>18.2</ele>
        <time>2012-03-20T18:45:18Z</time>
      </trkpt>
      <trkpt lat="59.9709546612" lon="23.4617061335">
        <ele>18.2</ele>
        <time>2012-03-20T18:45:23Z</time>
      </trkpt>
      <trkpt lat="59.9706944032" lon="23.4617965742">
        <ele>18.2</ele>
        <time>2012-03-20T18:45:33Z</time>
      </trkpt>
      <trkpt lat="59.9705397571" lon="23.4618511404">
        <ele>18.2</ele>
        <time>2012-03-20T18:45:39Z</time>
      </trkpt>
      <trkpt lat="59.9703872065" lon="23.4619696604">
        <ele>18.2</ele>
        <time>2012-03-20T18:45:45Z</time>
      </trkpt>
      <trkpt lat="59.9702459715" lon="23.4621243903">
        <ele>18.2</ele>
        <time>2012-03-20T18:45:51Z</time>
      </trkpt>
      <trkpt lat="59.9701152977" lon="23.462349109">
        <ele>18.2</ele>
        <time>2012-03-20T18:45:58Z</time>
      </trkpt>
      <trkpt lat="59.9700396929" lon="23.4625475086">
        <ele>18.2</ele>
        <time>2012-03-20T18:46:03Z</time>
      </trkpt>
      <trkpt lat="59.9699974482" lon="23.4626713931">
        <ele>18.2</ele>
        <time>2012-03-20T18:46:06Z</time>
      </trkpt>
      <trkpt lat="59.9699697879" lon="23.4630563738">
        <ele>18.2</ele>
        <time>2012-03-20T18:46:13Z</time>
      </trkpt>
      <trkpt lat="59.9699619927" lon="23.4633375027">
        <ele>18.2</ele>
        <time>2012-03-20T18:46:18Z</time>
      </trkpt>
      <trkpt lat="59.9699656808" lon="23.4636112555">
        <ele>18.8</ele>
        <time>2012-03-20T18:46:23Z</time>
      </trkpt>
      <trkpt lat="59.9700210013" lon="23.4639742756">
        <ele>19.6</ele>
        <time>2012-03-20T18:46:30Z</time>
      </trkpt>
      <trkpt lat="59.9701126993" lon="23.4642902733">
        <ele>20</ele>
        <time>2012-03-20T18:46:37Z</time>
      </trkpt>
      <trkpt lat="59.9701942552" lon="23.4644826379">
        <ele>20</ele>
        <time>2012-03-20T18:46:42Z</time>
      </trkpt>
      <trkpt lat="59.970347644" lon="23.4647066022">
        <ele>20.2</ele>
        <time>2012-03-20T18:46:49Z</time>
      </trkpt>
      <trkpt lat="59.9704750488" lon="23.46486326">
        <ele>20.2</ele>
        <time>2012-03-20T18:46:55Z</time>
      </trkpt>
      <trkpt lat="59.9706056388" lon="23.4649828697">
        <ele>20.2</ele>
        <time>2012-03-20T18:47:01Z</time>
      </trkpt>
      <trkpt lat="59.9707299424" lon="23.4650749029">
        <ele>20.2</ele>
        <time>2012-03-20T18:47:06Z</time>
      </trkpt>
      <trkpt lat="59.9708433495" lon="23.4651418743">
        <ele>20.2</ele>
        <time>2012-03-20T18:47:11Z</time>
      </trkpt>
      <trkpt lat="59.9710018512" lon="23.4652496655">
        <ele>20.2</ele>
        <time>2012-03-20T18:47:17Z</time>
      </trkpt>
      <trkpt lat="59.9713108919" lon="23.4653411959">
        <ele>20.2</ele>
        <time>2012-03-20T18:47:28Z</time>
      </trkpt>
      <trkpt lat="59.9714745066" lon="23.4653599713">
        <ele>20.2</ele>
        <time>2012-03-20T18:47:34Z</time>
      </trkpt>
      <trkpt lat="59.971620184" lon="23.4653546907">
        <ele>20.2</ele>
        <time>2012-03-20T18:47:39Z</time>
      </trkpt>
      <trkpt lat="59.9717470022" lon="23.4653536849">
        <ele>20.2</ele>
        <time>2012-03-20T18:47:44Z</time>
      </trkpt>
      <trkpt lat="59.9719200046" lon="23.465310602">
        <ele>20.2</ele>
        <time>2012-03-20T18:47:51Z</time>
      </trkpt>
      <trkpt lat="59.9720418774" lon="23.4653168046">
        <ele>20.2</ele>
        <time>2012-03-20T18:47:56Z</time>
      </trkpt>
      <trkpt lat="59.9721996248" lon="23.4652831093">
        <ele>20.2</ele>
        <time>2012-03-20T18:48:02Z</time>
      </trkpt>
      <trkpt lat="59.9723265267" lon="23.4652134557">
        <ele>20.2</ele>
        <time>2012-03-20T18:48:07Z</time>
      </trkpt>
      <trkpt lat="59.9724788258" lon="23.4651262002">
        <ele>20.2</ele>
        <time>2012-03-20T18:48:13Z</time>
      </trkpt>
      <trkpt lat="59.9726006149" lon="23.4650622463">
        <ele>20.2</ele>
        <time>2012-03-20T18:48:18Z</time>
      </trkpt>
      <trkpt lat="59.9727241641" lon="23.4649865577">
        <ele>20.2</ele>
        <time>2012-03-20T18:48:23Z</time>
      </trkpt>
      <trkpt lat="59.9730446041" lon="23.464729401">
        <ele>20.8</ele>
        <time>2012-03-20T18:48:36Z</time>
      </trkpt>
      <trkpt lat="59.9731737692" lon="23.4645904291">
        <ele>21.6</ele>
        <time>2012-03-20T18:48:42Z</time>
      </trkpt>
      <trkpt lat="59.9733027666" lon="23.4644395549">
        <ele>22.2</ele>
        <time>2012-03-20T18:48:48Z</time>
      </trkpt>
      <trkpt lat="59.9734284113" lon="23.4642813046">
        <ele>23.2</ele>
        <time>2012-03-20T18:48:54Z</time>
      </trkpt>
      <trkpt lat="59.9735442492" lon="23.464124144">
        <ele>24.2</ele>
        <time>2012-03-20T18:49:00Z</time>
      </trkpt>
      <trkpt lat="59.9736392161" lon="23.4639721802">
        <ele>25</ele>
        <time>2012-03-20T18:49:05Z</time>
      </trkpt>
      <trkpt lat="59.9737496057" lon="23.4637672427">
        <ele>25.8</ele>
        <time>2012-03-20T18:49:11Z</time>
      </trkpt>
      <trkpt lat="59.9737866537" lon="23.4637130956">
        <ele>26</ele>
        <time>2012-03-20T18:49:13Z</time>
      </trkpt>
      <trkpt lat="59.9738892482" lon="23.4638877744">
        <ele>27</ele>
        <time>2012-03-20T18:49:18Z</time>
      </trkpt>
      <trkpt lat="59.9739112087" lon="23.4639428435">
        <ele>27.2</ele>
        <time>2012-03-20T18:49:19Z</time>
      </trkpt>
      <trkpt lat="59.974000476" lon="23.4641549894">
        <ele>27.8</ele>
        <time>2012-03-20T18:49:24Z</time>
      </trkpt>
      <trkpt lat="59.9740210954" lon="23.4641780396">
        <ele>27.8</ele>
        <time>2012-03-20T18:49:25Z</time>
      </trkpt>
      <trkpt lat="59.9741526075" lon="23.4642988228">
        <ele>28</ele>
        <time>2012-03-20T18:49:31Z</time>
      </trkpt>
      <trkpt lat="59.9741752386" lon="23.4644327656">
        <ele>28.2</ele>
        <time>2012-03-20T18:49:34Z</time>
      </trkpt>
      <trkpt lat="59.9741355922" lon="23.4649708835">
        <ele>28.4</ele>
        <time>2012-03-20T18:49:45Z</time>
      </trkpt>
      <trkpt lat="59.9741837043" lon="23.4652191554">
        <ele>28.4</ele>
        <time>2012-03-20T18:49:50Z</time>
      </trkpt>
      <trkpt lat="59.9742383543" lon="23.4654617276">
        <ele>28.4</ele>
        <time>2012-03-20T18:49:55Z</time>
      </trkpt>
      <trkpt lat="59.9742610692" lon="23.4656689282">
        <ele>27.8</ele>
        <time>2012-03-20T18:49:59Z</time>
      </trkpt>
      <trkpt lat="59.974315384" lon="23.4660511428">
        <ele>27</ele>
        <time>2012-03-20T18:50:06Z</time>
      </trkpt>
      <trkpt lat="59.9744116082" lon="23.4662987441">
        <ele>26.8</ele>
        <time>2012-03-20T18:50:12Z</time>
      </trkpt>
      <trkpt lat="59.9744978579" lon="23.466580376">
        <ele>26.6</ele>
        <time>2012-03-20T18:50:18Z</time>
      </trkpt>
      <trkpt lat="59.974558962" lon="23.4668038374">
        <ele>26.2</ele>
        <time>2012-03-20T18:50:23Z</time>
      </trkpt>
      <trkpt lat="59.9746694354" lon="23.4671049153">
        <ele>25.2</ele>
        <time>2012-03-20T18:50:29Z</time>
      </trkpt>
      <trkpt lat="59.9748086588" lon="23.467376405">
        <ele>24</ele>
        <time>2012-03-20T18:50:36Z</time>
      </trkpt>
      <trkpt lat="59.9749305316" lon="23.4675126109">
        <ele>23.4</ele>
        <time>2012-03-20T18:50:41Z</time>
      </trkpt>
      <trkpt lat="59.9750608701" lon="23.4675007086">
        <ele>22</ele>
        <time>2012-03-20T18:50:46Z</time>
      </trkpt>
      <trkpt lat="59.9752219703" lon="23.4674210806">
        <ele>21.2</ele>
        <time>2012-03-20T18:50:52Z</time>
      </trkpt>
      <trkpt lat="59.9753796338" lon="23.4673307237">
        <ele>20.4</ele>
        <time>2012-03-20T18:50:58Z</time>
      </trkpt>
      <trkpt lat="59.9755309271" lon="23.4672585555">
        <ele>19.4</ele>
        <time>2012-03-20T18:51:04Z</time>
      </trkpt>
      <trkpt lat="59.9756829748" lon="23.4671724734">
        <ele>18.8</ele>
        <time>2012-03-20T18:51:10Z</time>
      </trkpt>
      <trkpt lat="59.9758341004" lon="23.4670617485">
        <ele>18.6</ele>
        <time>2012-03-20T18:51:16Z</time>
      </trkpt>
      <trkpt lat="59.9759619244" lon="23.4670081882">
        <ele>17.8</ele>
        <time>2012-03-20T18:51:21Z</time>
      </trkpt>
      <trkpt lat="59.9761343401" lon="23.4675230045">
        <ele>16.8</ele>
        <time>2012-03-20T18:51:33Z</time>
      </trkpt>
      <trkpt lat="59.9761780098" lon="23.4678635611">
        <ele>16.2</ele>
        <time>2012-03-20T18:51:38Z</time>
      </trkpt>
      <trkpt lat="59.9762116212" lon="23.4681898684">
        <ele>15.2</ele>
        <time>2012-03-20T18:51:44Z</time>
      </trkpt>
      <trkpt lat="59.9762189134" lon="23.4682137568">
        <ele>14.8</ele>
        <time>2012-03-20T18:51:49Z</time>
      </trkpt>
      <trkpt lat="59.9762332465" lon="23.4681534072">
        <ele>14.4</ele>
        <time>2012-03-20T18:52:03Z</time>
      </trkpt>
      <trkpt lat="59.976218662" lon="23.4679465419">
        <ele>14.2</ele>
        <time>2012-03-20T18:52:06Z</time>
      </trkpt>
      <trkpt lat="59.976297368" lon="23.4677513274">
        <ele>14.2</ele>
        <time>2012-03-20T18:52:10Z</time>
      </trkpt>
      <trkpt lat="59.9764681912" lon="23.4675774868">
        <ele>14.6</ele>
        <time>2012-03-20T18:52:15Z</time>
      </trkpt>
      <trkpt lat="59.9766479829" lon="23.4674643312">
        <ele>15.2</ele>
        <time>2012-03-20T18:52:20Z</time>
      </trkpt>
      <trkpt lat="59.9768456281" lon="23.4673734714">
        <ele>15.6</ele>
        <time>2012-03-20T18:52:26Z</time>
      </trkpt>
      <trkpt lat="59.9770301975" lon="23.4672871378">
        <ele>15.8</ele>
        <time>2012-03-20T18:52:31Z</time>
      </trkpt>
      <trkpt lat="59.9772407509" lon="23.4671961942">
        <ele>16</ele>
        <time>2012-03-20T18:52:37Z</time>
      </trkpt>
      <trkpt lat="59.9774164355" lon="23.4671187454">
        <ele>16.2</ele>
        <time>2012-03-20T18:52:42Z</time>
      </trkpt>
      <trkpt lat="59.977610225" lon="23.4670260416">
        <ele>16.2</ele>
        <time>2012-03-20T18:52:48Z</time>
      </trkpt>
      <trkpt lat="59.9777669666" lon="23.4669426417">
        <ele>16.2</ele>
        <time>2012-03-20T18:52:53Z</time>
      </trkpt>
      <trkpt lat="59.9779559784" lon="23.4668270553">
        <ele>16.2</ele>
        <time>2012-03-20T18:52:59Z</time>
      </trkpt>
      <trkpt lat="59.9781397097" lon="23.4667334295">
        <ele>16.2</ele>
        <time>2012-03-20T18:53:05Z</time>
      </trkpt>
      <trkpt lat="59.9782845489" lon="23.4666479341">
        <ele>16.2</ele>
        <time>2012-03-20T18:53:10Z</time>
      </trkpt>
      <trkpt lat="59.9783509335" lon="23.4665026758">
        <ele>16.2</ele>
        <time>2012-03-20T18:53:13Z</time>
      </trkpt>
      <trkpt lat="59.9783894065" lon="23.4661233948">
        <ele>16.2</ele>
        <time>2012-03-20T18:53:19Z</time>
      </trkpt>
      <trkpt lat="59.9784305616" lon="23.465869088">
        <ele>16.2</ele>
        <time>2012-03-20T18:53:24Z</time>
      </trkpt>
      <trkpt lat="59.9784716329" lon="23.4656929842">
        <ele>16.2</ele>
        <time>2012-03-20T18:53:28Z</time>
      </trkpt>
      <trkpt lat="59.9784606526" lon="23.4651946803">
        <ele>18</ele>
        <time>2012-03-20T18:53:39Z</time>
      </trkpt>
      <trkpt lat="59.9784635024" lon="23.4651532737">
        <ele>18.2</ele>
        <time>2012-03-20T18:53:40Z</time>
      </trkpt>
      <trkpt lat="59.9784978682" lon="23.4649594003">
        <ele>19.2</ele>
        <time>2012-03-20T18:53:45Z</time>
      </trkpt>
      <trkpt lat="59.9785862135" lon="23.4648246194">
        <ele>20.6</ele>
        <time>2012-03-20T18:53:51Z</time>
      </trkpt>
      <trkpt lat="59.9787152947" lon="23.4648371084">
        <ele>21.4</ele>
        <time>2012-03-20T18:53:56Z</time>
      </trkpt>
      <trkpt lat="59.9788247623" lon="23.4650282157">
        <ele>22</ele>
        <time>2012-03-20T18:54:02Z</time>
      </trkpt>
      <trkpt lat="59.9789081622" lon="23.4652173114">
        <ele>22.2</ele>
        <time>2012-03-20T18:54:07Z</time>
      </trkpt>
      <trkpt lat="59.9789913945" lon="23.465399953">
        <ele>22.2</ele>
        <time>2012-03-20T18:54:12Z</time>
      </trkpt>
      <trkpt lat="59.9791133512" lon="23.4656651563">
        <ele>23</ele>
        <time>2012-03-20T18:54:19Z</time>
      </trkpt>
      <trkpt lat="59.9793322864" lon="23.4661551622">
        <ele>24.2</ele>
        <time>2012-03-20T18:54:32Z</time>
      </trkpt>
      <trkpt lat="59.979450555" lon="23.4663651288">
        <ele>24.4</ele>
        <time>2012-03-20T18:54:38Z</time>
      </trkpt>
      <trkpt lat="59.9795226393" lon="23.4665175117">
        <ele>25</ele>
        <time>2012-03-20T18:54:42Z</time>
      </trkpt>
      <trkpt lat="59.9796387286" lon="23.4667400512">
        <ele>25.8</ele>
        <time>2012-03-20T18:54:48Z</time>
      </trkpt>
      <trkpt lat="59.9797661335" lon="23.4669478385">
        <ele>26.4</ele>
        <time>2012-03-20T18:54:54Z</time>
      </trkpt>
      <trkpt lat="59.979873338" lon="23.4671567154">
        <ele>27.6</ele>
        <time>2012-03-20T18:55:00Z</time>
      </trkpt>
      <trkpt lat="59.979975681" lon="23.4673206654">
        <ele>28</ele>
        <time>2012-03-20T18:55:05Z</time>
      </trkpt>
      <trkpt lat="59.9801164131" lon="23.4674883034">
        <ele>28.4</ele>
        <time>2012-03-20T18:55:11Z</time>
      </trkpt>
      <trkpt lat="59.9802560556" lon="23.4676586236">
        <ele>28.6</ele>
        <time>2012-03-20T18:55:17Z</time>
      </trkpt>
      <trkpt lat="59.9803617513" lon="23.4677577815">
        <ele>28.6</ele>
        <time>2012-03-20T18:55:21Z</time>
      </trkpt>
      <trkpt lat="59.9805081831" lon="23.4679426024">
        <ele>28.6</ele>
        <time>2012-03-20T18:55:27Z</time>
      </trkpt>
      <trkpt lat="59.9805334965" lon="23.4679703465">
        <ele>28.6</ele>
        <time>2012-03-20T18:55:28Z</time>
      </trkpt>
      <trkpt lat="59.9806344145" lon="23.4680984219">
        <ele>28.8</ele>
        <time>2012-03-20T18:55:33Z</time>
      </trkpt>
      <trkpt lat="59.9808090933" lon="23.468287769">
        <ele>28.8</ele>
        <time>2012-03-20T18:55:39Z</time>
      </trkpt>
      <trkpt lat="59.9809675113" lon="23.4684527248">
        <ele>28.8</ele>
        <time>2012-03-20T18:55:44Z</time>
      </trkpt>
      <trkpt lat="59.9811490632" lon="23.4686399765">
        <ele>28.8</ele>
        <time>2012-03-20T18:55:50Z</time>
      </trkpt>
      <trkpt lat="59.9813266757" lon="23.468827731">
        <ele>28.8</ele>
        <time>2012-03-20T18:55:56Z</time>
      </trkpt>
      <trkpt lat="59.9814803997" lon="23.4689829638">
        <ele>28.8</ele>
        <time>2012-03-20T18:56:01Z</time>
      </trkpt>
      <trkpt lat="59.9816091457" lon="23.4691454888">
        <ele>28.8</ele>
        <time>2012-03-20T18:56:06Z</time>
      </trkpt>
      <trkpt lat="59.9817476985" lon="23.4693004702">
        <ele>28.8</ele>
        <time>2012-03-20T18:56:11Z</time>
      </trkpt>
      <trkpt lat="59.9818863351" lon="23.4694766577">
        <ele>28.8</ele>
        <time>2012-03-20T18:56:16Z</time>
      </trkpt>
      <trkpt lat="59.981942913" lon="23.4695541903">
        <ele>28.8</ele>
        <time>2012-03-20T18:56:18Z</time>
      </trkpt>
      <trkpt lat="59.982006783" lon="23.4696328963">
        <ele>28.8</ele>
        <time>2012-03-20T18:56:20Z</time>
      </trkpt>
      <trkpt lat="59.9821228723" lon="23.4698116823">
        <ele>28.8</ele>
        <time>2012-03-20T18:56:25Z</time>
      </trkpt>
      <trkpt lat="59.9822733275" lon="23.4700801545">
        <ele>29.4</ele>
        <time>2012-03-20T18:56:31Z</time>
      </trkpt>
      <trkpt lat="59.9824236149" lon="23.470335551">
        <ele>30</ele>
        <time>2012-03-20T18:56:37Z</time>
      </trkpt>
      <trkpt lat="59.9825474156" lon="23.4705667238">
        <ele>30.4</ele>
        <time>2012-03-20T18:56:42Z</time>
      </trkpt>
      <trkpt lat="59.9826874771" lon="23.4708525466">
        <ele>30.8</ele>
        <time>2012-03-20T18:56:48Z</time>
      </trkpt>
      <trkpt lat="59.9828080927" lon="23.4710857311">
        <ele>31.6</ele>
        <time>2012-03-20T18:56:53Z</time>
      </trkpt>
      <trkpt lat="59.9829151295" lon="23.4713361822">
        <ele>32.2</ele>
        <time>2012-03-20T18:56:58Z</time>
      </trkpt>
      <trkpt lat="59.9830699432" lon="23.4715961049">
        <ele>32.6</ele>
        <time>2012-03-20T18:57:04Z</time>
      </trkpt>
      <trkpt lat="59.9831539299" lon="23.4716682731">
        <ele>32.6</ele>
        <time>2012-03-20T18:57:07Z</time>
      </trkpt>
      <trkpt lat="59.9831980187" lon="23.4715078435">
        <ele>32.8</ele>
        <time>2012-03-20T18:57:11Z</time>
      </trkpt>
      <trkpt lat="59.9831689335" lon="23.471389994">
        <ele>32.8</ele>
        <time>2012-03-20T18:57:13Z</time>
      </trkpt>
      <trkpt lat="59.9830397684" lon="23.4709799515">
        <ele>32.8</ele>
        <time>2012-03-20T18:57:20Z</time>
      </trkpt>
      <trkpt lat="59.982966762" lon="23.4707079588">
        <ele>33.4</ele>
        <time>2012-03-20T18:57:25Z</time>
      </trkpt>
      <trkpt lat="59.9828582164" lon="23.470356841">
        <ele>34.2</ele>
        <time>2012-03-20T18:57:31Z</time>
      </trkpt>
      <trkpt lat="59.9827743974" lon="23.4700362334">
        <ele>34.8</ele>
        <time>2012-03-20T18:57:37Z</time>
      </trkpt>
      <trkpt lat="59.9826802687" lon="23.4696504983">
        <ele>36</ele>
        <time>2012-03-20T18:57:44Z</time>
      </trkpt>
      <trkpt lat="59.9826351741" lon="23.4694028132">
        <ele>36.4</ele>
        <time>2012-03-20T18:57:48Z</time>
      </trkpt>
      <trkpt lat="59.9825772551" lon="23.4690528688">
        <ele>37.4</ele>
        <time>2012-03-20T18:57:54Z</time>
      </trkpt>
      <trkpt lat="59.9825289754" lon="23.4686927824">
        <ele>38.2</ele>
        <time>2012-03-20T18:58:00Z</time>
      </trkpt>
      <trkpt lat="59.9824867306" lon="23.4683171895">
        <ele>38.8</ele>
        <time>2012-03-20T18:58:06Z</time>
      </trkpt>
      <trkpt lat="59.9824477548" lon="23.4679378247">
        <ele>39.8</ele>
        <time>2012-03-20T18:58:12Z</time>
      </trkpt>
      <trkpt lat="59.9823894168" lon="23.4675507485">
        <ele>40.6</ele>
        <time>2012-03-20T18:58:18Z</time>
      </trkpt>
      <trkpt lat="59.9823351859" lon="23.4671694559">
        <ele>41</ele>
        <time>2012-03-20T18:58:24Z</time>
      </trkpt>
      <trkpt lat="59.9822863194" lon="23.4667845591">
        <ele>41.2</ele>
        <time>2012-03-20T18:58:30Z</time>
      </trkpt>
      <trkpt lat="59.9821629378" lon="23.4658330458">
        <ele>41.2</ele>
        <time>2012-03-20T18:58:45Z</time>
      </trkpt>
      <trkpt lat="59.9821244649" lon="23.4654369172">
        <ele>41.4</ele>
        <time>2012-03-20T18:58:51Z</time>
      </trkpt>
      <trkpt lat="59.9820849023" lon="23.4650513498">
        <ele>41.4</ele>
        <time>2012-03-20T18:58:57Z</time>
      </trkpt>
      <trkpt lat="59.9820300847" lon="23.4646391279">
        <ele>41.4</ele>
        <time>2012-03-20T18:59:03Z</time>
      </trkpt>
      <trkpt lat="59.982000329" lon="23.4644127328">
        <ele>41.4</ele>
        <time>2012-03-20T18:59:07Z</time>
      </trkpt>
      <trkpt lat="59.9819504567" lon="23.464019957">
        <ele>41.4</ele>
        <time>2012-03-20T18:59:13Z</time>
      </trkpt>
      <trkpt lat="59.9819041048" lon="23.4636746227">
        <ele>41.4</ele>
        <time>2012-03-20T18:59:18Z</time>
      </trkpt>
      <trkpt lat="59.9818652127" lon="23.4633411907">
        <ele>41.4</ele>
        <time>2012-03-20T18:59:23Z</time>
      </trkpt>
      <trkpt lat="59.9817822319" lon="23.4627305693">
        <ele>41.2</ele>
        <time>2012-03-20T18:59:32Z</time>
      </trkpt>
      <trkpt lat="59.9817279172" lon="23.4623682198">
        <ele>40.4</ele>
        <time>2012-03-20T18:59:37Z</time>
      </trkpt>
      <trkpt lat="59.9816861754" lon="23.4620735122">
        <ele>40</ele>
        <time>2012-03-20T18:59:42Z</time>
      </trkpt>
      <trkpt lat="59.9816299328" lon="23.4617009367">
        <ele>39.2</ele>
        <time>2012-03-20T18:59:47Z</time>
      </trkpt>
      <trkpt lat="59.9815829942" lon="23.4613797423">
        <ele>38.4</ele>
        <time>2012-03-20T18:59:52Z</time>
      </trkpt>
      <trkpt lat="59.981531194" lon="23.4609790037">
        <ele>37.6</ele>
        <time>2012-03-20T18:59:58Z</time>
      </trkpt>
      <trkpt lat="59.9814785557" lon="23.4605771754">
        <ele>36.4</ele>
        <time>2012-03-20T19:00:04Z</time>
      </trkpt>
      <trkpt lat="59.9814404181" lon="23.460235613">
        <ele>35.8</ele>
        <time>2012-03-20T19:00:09Z</time>
      </trkpt>
      <trkpt lat="59.9813995982" lon="23.4599601837">
        <ele>35</ele>
        <time>2012-03-20T19:00:13Z</time>
      </trkpt>
      <trkpt lat="59.9813456188" lon="23.4596258297">
        <ele>34.2</ele>
        <time>2012-03-20T19:00:18Z</time>
      </trkpt>
      <trkpt lat="59.9813063077" lon="23.4592956667">
        <ele>33.8</ele>
        <time>2012-03-20T19:00:23Z</time>
      </trkpt>
      <trkpt lat="59.981257525" lon="23.4588831934">
        <ele>32.6</ele>
        <time>2012-03-20T19:00:29Z</time>
      </trkpt>
      <trkpt lat="59.9812089938" lon="23.4585087739">
        <ele>31.8</ele>
        <time>2012-03-20T19:00:35Z</time>
      </trkpt>
      <trkpt lat="59.9811576966" lon="23.4581482684">
        <ele>31.4</ele>
        <time>2012-03-20T19:00:40Z</time>
      </trkpt>
      <trkpt lat="59.9811074052" lon="23.4578166804">
        <ele>30.6</ele>
        <time>2012-03-20T19:00:45Z</time>
      </trkpt>
      <trkpt lat="59.9811000291" lon="23.4577502958">
        <ele>30.4</ele>
        <time>2012-03-20T19:00:46Z</time>
      </trkpt>
      <trkpt lat="59.9810631487" lon="23.4574898702">
        <ele>29.8</ele>
        <time>2012-03-20T19:00:50Z</time>
      </trkpt>
      <trkpt lat="59.981009756" lon="23.4570925681">
        <ele>29.4</ele>
        <time>2012-03-20T19:00:56Z</time>
      </trkpt>
      <trkpt lat="59.9809627336" lon="23.4567727148">
        <ele>29.2</ele>
        <time>2012-03-20T19:01:01Z</time>
      </trkpt>
      <trkpt lat="59.9809063234" lon="23.4564050008">
        <ele>28</ele>
        <time>2012-03-20T19:01:07Z</time>
      </trkpt>
      <trkpt lat="59.9808462252" lon="23.4560351914">
        <ele>27.4</ele>
        <time>2012-03-20T19:01:13Z</time>
      </trkpt>
      <trkpt lat="59.9807848697" lon="23.4556427509">
        <ele>26.6</ele>
        <time>2012-03-20T19:01:19Z</time>
      </trkpt>
      <trkpt lat="59.9807173954" lon="23.4551283537">
        <ele>25.6</ele>
        <time>2012-03-20T19:01:27Z</time>
      </trkpt>
      <trkpt lat="59.9807845344" lon="23.4548975999">
        <ele>25.2</ele>
        <time>2012-03-20T19:01:31Z</time>
      </trkpt>
      <trkpt lat="59.9809188962" lon="23.4546942551">
        <ele>25</ele>
        <time>2012-03-20T19:01:36Z</time>
      </trkpt>
      <trkpt lat="59.9810162101" lon="23.4544153054">
        <ele>24.2</ele>
        <time>2012-03-20T19:01:41Z</time>
      </trkpt>
      <trkpt lat="59.9810104266" lon="23.4542981265">
        <ele>24.2</ele>
        <time>2012-03-20T19:01:43Z</time>
      </trkpt>
      <trkpt lat="59.9809541002" lon="23.4539624314">
        <ele>23.4</ele>
        <time>2012-03-20T19:01:48Z</time>
      </trkpt>
      <trkpt lat="59.9808798366" lon="23.4536678076">
        <ele>23</ele>
        <time>2012-03-20T19:01:53Z</time>
      </trkpt>
      <trkpt lat="59.980825019" lon="23.4533888579">
        <ele>22.8</ele>
        <time>2012-03-20T19:01:58Z</time>
      </trkpt>
      <trkpt lat="59.9807588858" lon="23.453060958">
        <ele>21.8</ele>
        <time>2012-03-20T19:02:03Z</time>
      </trkpt>
      <trkpt lat="59.9807228436" lon="23.4527527556">
        <ele>21.2</ele>
        <time>2012-03-20T19:02:08Z</time>
      </trkpt>
      <trkpt lat="59.9806986199" lon="23.4525079203">
        <ele>20.8</ele>
        <time>2012-03-20T19:02:12Z</time>
      </trkpt>
      <trkpt lat="59.9806717978" lon="23.4521034098">
        <ele>19.6</ele>
        <time>2012-03-20T19:02:18Z</time>
      </trkpt>
      <trkpt lat="59.9806515136" lon="23.4517703131">
        <ele>18.4</ele>
        <time>2012-03-20T19:02:23Z</time>
      </trkpt>
      <trkpt lat="59.9806085983" lon="23.4513446802">
        <ele>17.4</ele>
        <time>2012-03-20T19:02:29Z</time>
      </trkpt>
      <trkpt lat="59.9805541159" lon="23.4508749585">
        <ele>16</ele>
        <time>2012-03-20T19:02:36Z</time>
      </trkpt>
      <trkpt lat="59.9805225162" lon="23.4505107649">
        <ele>15.2</ele>
        <time>2012-03-20T19:02:41Z</time>
      </trkpt>
      <trkpt lat="59.980491587" lon="23.4501021473">
        <ele>14.6</ele>
        <time>2012-03-20T19:02:47Z</time>
      </trkpt>
      <trkpt lat="59.9804676986" lon="23.449708198">
        <ele>13.8</ele>
        <time>2012-03-20T19:02:53Z</time>
      </trkpt>
      <trkpt lat="59.9804433072" lon="23.449404438">
        <ele>13</ele>
        <time>2012-03-20T19:02:58Z</time>
      </trkpt>
      <trkpt lat="59.9804497613" lon="23.4489885281">
        <ele>12.6</ele>
        <time>2012-03-20T19:03:04Z</time>
      </trkpt>
      <trkpt lat="59.9804592328" lon="23.4485877894">
        <ele>12.4</ele>
        <time>2012-03-20T19:03:10Z</time>
      </trkpt>
      <trkpt lat="59.9804797685" lon="23.4481956003">
        <ele>12.2</ele>
        <time>2012-03-20T19:03:16Z</time>
      </trkpt>
      <trkpt lat="59.9804900782" lon="23.4478235278">
        <ele>12.2</ele>
        <time>2012-03-20T19:03:22Z</time>
      </trkpt>
      <trkpt lat="59.9805056686" lon="23.447448354">
        <ele>12.2</ele>
        <time>2012-03-20T19:03:28Z</time>
      </trkpt>
      <trkpt lat="59.98051799" lon="23.4471342003">
        <ele>12.2</ele>
        <time>2012-03-20T19:03:33Z</time>
      </trkpt>
      <trkpt lat="59.9805282159" lon="23.4467087351">
        <ele>12.2</ele>
        <time>2012-03-20T19:03:39Z</time>
      </trkpt>
      <trkpt lat="59.9805350052" lon="23.4464488124">
        <ele>12.2</ele>
        <time>2012-03-20T19:03:43Z</time>
      </trkpt>
      <trkpt lat="59.9805468237" lon="23.4460603113">
        <ele>12.2</ele>
        <time>2012-03-20T19:03:49Z</time>
      </trkpt>
      <trkpt lat="59.9805516852" lon="23.4457324952">
        <ele>12.2</ele>
        <time>2012-03-20T19:03:54Z</time>
      </trkpt>
      <trkpt lat="59.9805477457" lon="23.4453427369">
        <ele>12.2</ele>
        <time>2012-03-20T19:04:00Z</time>
      </trkpt>
      <trkpt lat="59.9805257851" lon="23.4449485361">
        <ele>12.2</ele>
        <time>2012-03-20T19:04:06Z</time>
      </trkpt>
      <trkpt lat="59.9805123741" lon="23.4445469593">
        <ele>13</ele>
        <time>2012-03-20T19:04:12Z</time>
      </trkpt>
      <trkpt lat="59.9804822831" lon="23.4441503278">
        <ele>13.6</ele>
        <time>2012-03-20T19:04:18Z</time>
      </trkpt>
      <trkpt lat="59.9803886572" lon="23.4438847892">
        <ele>14.6</ele>
        <time>2012-03-20T19:04:23Z</time>
      </trkpt>
      <trkpt lat="59.9802315804" lon="23.4436250341">
        <ele>15.4</ele>
        <time>2012-03-20T19:04:29Z</time>
      </trkpt>
      <trkpt lat="59.9801115516" lon="23.4433399657">
        <ele>16.2</ele>
        <time>2012-03-20T19:04:34Z</time>
      </trkpt>
      <trkpt lat="59.9800465919" lon="23.4430209506">
        <ele>17</ele>
        <time>2012-03-20T19:04:39Z</time>
      </trkpt>
      <trkpt lat="59.9799959652" lon="23.4427142568">
        <ele>17.6</ele>
        <time>2012-03-20T19:04:44Z</time>
      </trkpt>
      <trkpt lat="59.9799531337" lon="23.4423367361">
        <ele>18.8</ele>
        <time>2012-03-20T19:04:50Z</time>
      </trkpt>
      <trkpt lat="59.9799597554" lon="23.4420050643">
        <ele>19.6</ele>
        <time>2012-03-20T19:04:55Z</time>
      </trkpt>
      <trkpt lat="59.9799690593" lon="23.4416587242">
        <ele>19.8</ele>
        <time>2012-03-20T19:05:00Z</time>
      </trkpt>
      <trkpt lat="59.979979872" lon="23.44138187">
        <ele>20</ele>
        <time>2012-03-20T19:05:04Z</time>
      </trkpt>
      <trkpt lat="59.9799734179" lon="23.4410131502">
        <ele>20.2</ele>
        <time>2012-03-20T19:05:09Z</time>
      </trkpt>
      <trkpt lat="59.979955313" lon="23.4407509644">
        <ele>20.2</ele>
        <time>2012-03-20T19:05:13Z</time>
      </trkpt>
      <trkpt lat="59.9799476855" lon="23.4406806403">
        <ele>20.2</ele>
        <time>2012-03-20T19:05:14Z</time>
      </trkpt>
      <trkpt lat="59.9799186003" lon="23.4403358927">
        <ele>20.4</ele>
        <time>2012-03-20T19:05:19Z</time>
      </trkpt>
      <trkpt lat="59.9799055245" lon="23.4399936597">
        <ele>20.4</ele>
        <time>2012-03-20T19:05:24Z</time>
      </trkpt>
      <trkpt lat="59.979944668" lon="23.4397130337">
        <ele>20.4</ele>
        <time>2012-03-20T19:05:29Z</time>
      </trkpt>
      <trkpt lat="59.9799240485" lon="23.4394811066">
        <ele>20.4</ele>
        <time>2012-03-20T19:05:33Z</time>
      </trkpt>
      <trkpt lat="59.9799418182" lon="23.4394381074">
        <ele>20.4</ele>
        <time>2012-03-20T19:05:34Z</time>
      </trkpt>
      <trkpt lat="59.9800123099" lon="23.4391463335">
        <ele>20.4</ele>
        <time>2012-03-20T19:05:39Z</time>
      </trkpt>
      <trkpt lat="59.9800191831" lon="23.4388474349">
        <ele>20.4</ele>
        <time>2012-03-20T19:05:44Z</time>
      </trkpt>
      <trkpt lat="59.9800357792" lon="23.4387638674">
        <ele>20.4</ele>
        <time>2012-03-20T19:05:45Z</time>
      </trkpt>
      <trkpt lat="59.9800403893" lon="23.4385080518">
        <ele>20.4</ele>
        <time>2012-03-20T19:05:49Z</time>
      </trkpt>
      <trkpt lat="59.9799528823" lon="23.4383628773">
        <ele>20.4</ele>
        <time>2012-03-20T19:05:53Z</time>
      </trkpt>
      <trkpt lat="59.979926144" lon="23.4382476261">
        <ele>20.4</ele>
        <time>2012-03-20T19:05:55Z</time>
      </trkpt>
      <trkpt lat="59.97994098" lon="23.4379334725">
        <ele>20.4</ele>
        <time>2012-03-20T19:06:00Z</time>
      </trkpt>
      <trkpt lat="59.9800135672" lon="23.4375756492">
        <ele>20.4</ele>
        <time>2012-03-20T19:06:05Z</time>
      </trkpt>
      <trkpt lat="59.9800672114" lon="23.4372086058">
        <ele>20.4</ele>
        <time>2012-03-20T19:06:10Z</time>
      </trkpt>
      <trkpt lat="59.9801336798" lon="23.4368340187">
        <ele>20.4</ele>
        <time>2012-03-20T19:06:15Z</time>
      </trkpt>
      <trkpt lat="59.9801940295" lon="23.436485164">
        <ele>20.4</ele>
        <time>2012-03-20T19:06:20Z</time>
      </trkpt>
      <trkpt lat="59.9802551336" lon="23.4361249938">
        <ele>20.4</ele>
        <time>2012-03-20T19:06:25Z</time>
      </trkpt>
      <trkpt lat="59.9803220211" lon="23.4357748818">
        <ele>20.4</ele>
        <time>2012-03-20T19:06:30Z</time>
      </trkpt>
      <trkpt lat="59.980513799" lon="23.4349425592">
        <ele>18.8</ele>
        <time>2012-03-20T19:06:43Z</time>
      </trkpt>
      <trkpt lat="59.9805953549" lon="23.4345965543">
        <ele>18.6</ele>
        <time>2012-03-20T19:06:48Z</time>
      </trkpt>
      <trkpt lat="59.9806811017" lon="23.4342684868">
        <ele>18.6</ele>
        <time>2012-03-20T19:06:53Z</time>
      </trkpt>
      <trkpt lat="59.9807665971" lon="23.4339383237">
        <ele>18.4</ele>
        <time>2012-03-20T19:06:58Z</time>
      </trkpt>
      <trkpt lat="59.9808555291" lon="23.4336045565">
        <ele>18.4</ele>
        <time>2012-03-20T19:07:03Z</time>
      </trkpt>
      <trkpt lat="59.9809404377" lon="23.433287553">
        <ele>18.4</ele>
        <time>2012-03-20T19:07:08Z</time>
      </trkpt>
      <trkpt lat="59.9810359914" lon="23.4329070147">
        <ele>18.4</ele>
        <time>2012-03-20T19:07:14Z</time>
      </trkpt>
      <trkpt lat="59.9811314612" lon="23.4325714035">
        <ele>18.4</ele>
        <time>2012-03-20T19:07:20Z</time>
      </trkpt>
      <trkpt lat="59.9812233268" lon="23.43223311">
        <ele>18.4</ele>
        <time>2012-03-20T19:07:26Z</time>
      </trkpt>
      <trkpt lat="59.9813110853" lon="23.4318666533">
        <ele>18.4</ele>
        <time>2012-03-20T19:07:33Z</time>
      </trkpt>
      <trkpt lat="59.9814079801" lon="23.4315141106">
        <ele>18.4</ele>
        <time>2012-03-20T19:07:39Z</time>
      </trkpt>
      <trkpt lat="59.9815006001" lon="23.431149917">
        <ele>17.6</ele>
        <time>2012-03-20T19:07:45Z</time>
      </trkpt>
      <trkpt lat="59.9816134205" lon="23.4308077679">
        <ele>17</ele>
        <time>2012-03-20T19:07:51Z</time>
      </trkpt>
      <trkpt lat="59.9817558289" lon="23.4305038402">
        <ele>16.8</ele>
        <time>2012-03-20T19:07:57Z</time>
      </trkpt>
      <trkpt lat="59.9818972316" lon="23.4304161655">
        <ele>16.6</ele>
        <time>2012-03-20T19:08:01Z</time>
      </trkpt>
      <trkpt lat="59.9820831421" lon="23.430404347">
        <ele>16.4</ele>
        <time>2012-03-20T19:08:06Z</time>
      </trkpt>
      <trkpt lat="59.9822895045" lon="23.4304491902">
        <ele>16.4</ele>
        <time>2012-03-20T19:08:12Z</time>
      </trkpt>
      <trkpt lat="59.9824965375" lon="23.4304155788">
        <ele>16.4</ele>
        <time>2012-03-20T19:08:18Z</time>
      </trkpt>
      <trkpt lat="59.9826409576" lon="23.4302256449">
        <ele>16.4</ele>
        <time>2012-03-20T19:08:23Z</time>
      </trkpt>
      <trkpt lat="59.9827561249" lon="23.429987599">
        <ele>16.4</ele>
        <time>2012-03-20T19:08:28Z</time>
      </trkpt>
      <trkpt lat="59.98280935" lon="23.4297387404">
        <ele>16.4</ele>
        <time>2012-03-20T19:08:32Z</time>
      </trkpt>
      <trkpt lat="59.9828587194" lon="23.4294160372">
        <ele>16.4</ele>
        <time>2012-03-20T19:08:37Z</time>
      </trkpt>
      <trkpt lat="59.9829165545" lon="23.4290244348">
        <ele>16.4</ele>
        <time>2012-03-20T19:08:43Z</time>
      </trkpt>
      <trkpt lat="59.9829754792" lon="23.4286198405">
        <ele>16.4</ele>
        <time>2012-03-20T19:08:49Z</time>
      </trkpt>
      <trkpt lat="59.9830359965" lon="23.4282249692">
        <ele>16.4</ele>
        <time>2012-03-20T19:08:55Z</time>
      </trkpt>
      <trkpt lat="59.9831011239" lon="23.4278343727">
        <ele>16.4</ele>
        <time>2012-03-20T19:09:01Z</time>
      </trkpt>
      <trkpt lat="59.9831674247" lon="23.4274483024">
        <ele>15.6</ele>
        <time>2012-03-20T19:09:07Z</time>
      </trkpt>
      <trkpt lat="59.9832256789" lon="23.4271003697">
        <ele>15</ele>
        <time>2012-03-20T19:09:12Z</time>
      </trkpt>
      <trkpt lat="59.9832846875" lon="23.4267761578">
        <ele>14.8</ele>
        <time>2012-03-20T19:09:17Z</time>
      </trkpt>
      <trkpt lat="59.9833556822" lon="23.4264044205">
        <ele>14.6</ele>
        <time>2012-03-20T19:09:23Z</time>
      </trkpt>
      <trkpt lat="59.9833614657" lon="23.4260408975">
        <ele>14.4</ele>
        <time>2012-03-20T19:09:28Z</time>
      </trkpt>
      <trkpt lat="59.9833088274" lon="23.4258174361">
        <ele>14.4</ele>
        <time>2012-03-20T19:09:31Z</time>
      </trkpt>
      <trkpt lat="59.9832918959" lon="23.425689193">
        <ele>14.4</ele>
        <time>2012-03-20T19:09:33Z</time>
      </trkpt>
      <trkpt lat="59.9832949972" lon="23.425604452">
        <ele>14.4</ele>
        <time>2012-03-20T19:09:34Z</time>
      </trkpt>
      <trkpt lat="59.983458109" lon="23.4253445293">
        <ele>14.4</ele>
        <time>2012-03-20T19:09:39Z</time>
      </trkpt>
      <trkpt lat="59.9834980069" lon="23.4253325432">
        <ele>14.4</ele>
        <time>2012-03-20T19:09:40Z</time>
      </trkpt>
      <trkpt lat="59.9835846757" lon="23.4253069784">
        <ele>14.4</ele>
        <time>2012-03-20T19:09:43Z</time>
      </trkpt>
      <trkpt lat="59.9836569277" lon="23.4253059725">
        <ele>14.4</ele>
        <time>2012-03-20T19:09:47Z</time>
      </trkpt>
      <trkpt lat="59.983834624" lon="23.4252764683">
        <ele>14.2</ele>
        <time>2012-03-20T19:09:51Z</time>
      </trkpt>
      <trkpt lat="59.9839074627" lon="23.4250888813">
        <ele>13.6</ele>
        <time>2012-03-20T19:09:54Z</time>
      </trkpt>
      <trkpt lat="59.9839482825" lon="23.4249952555">
        <ele>13.4</ele>
        <time>2012-03-20T19:09:56Z</time>
      </trkpt>
      <trkpt lat="59.9840040222" lon="23.4246823592">
        <ele>12.8</ele>
        <time>2012-03-20T19:10:01Z</time>
      </trkpt>
      <trkpt lat="59.9840146672" lon="23.4243799402">
        <ele>12.6</ele>
        <time>2012-03-20T19:10:05Z</time>
      </trkpt>
      <trkpt lat="59.9840607676" lon="23.4239666287">
        <ele>12.4</ele>
        <time>2012-03-20T19:10:11Z</time>
      </trkpt>
      <trkpt lat="59.9841187704" lon="23.4236295925">
        <ele>12.2</ele>
        <time>2012-03-20T19:10:16Z</time>
      </trkpt>
      <trkpt lat="59.9841711573" lon="23.4232586097">
        <ele>12.2</ele>
        <time>2012-03-20T19:10:21Z</time>
      </trkpt>
      <trkpt lat="59.9842813792" lon="23.4225560388">
        <ele>12.2</ele>
        <time>2012-03-20T19:10:31Z</time>
      </trkpt>
      <trkpt lat="59.9842911861" lon="23.4224857985">
        <ele>12.2</ele>
        <time>2012-03-20T19:10:32Z</time>
      </trkpt>
      <trkpt lat="59.9843158288" lon="23.422380438">
        <ele>12.2</ele>
        <time>2012-03-20T19:10:35Z</time>
      </trkpt>
      <trkpt lat="59.9843155774" lon="23.4223847966">
        <ele>13</ele>
        <time>2012-03-20T19:10:43Z</time>
      </trkpt>
      <trkpt lat="59.9843215285" lon="23.4223122093">
        <ele>14</ele>
        <time>2012-03-20T19:11:00Z</time>
      </trkpt>
      <trkpt lat="59.9843392143" lon="23.4222411308">
        <ele>14</ele>
        <time>2012-03-20T19:11:04Z</time>
      </trkpt>
      <trkpt lat="59.9843444111" lon="23.4221392907">
        <ele>14.2</ele>
        <time>2012-03-20T19:11:09Z</time>
      </trkpt>
      <trkpt lat="59.9843796151" lon="23.421872411">
        <ele>14.2</ele>
        <time>2012-03-20T19:11:20Z</time>
      </trkpt>
      <trkpt lat="59.9844082812" lon="23.4216943795">
        <ele>14.2</ele>
        <time>2012-03-20T19:11:28Z</time>
      </trkpt>
      <trkpt lat="59.9844345166" lon="23.4215185272">
        <ele>14.2</ele>
        <time>2012-03-20T19:11:35Z</time>
      </trkpt>
      <trkpt lat="59.9844831316" lon="23.4212695848">
        <ele>14.2</ele>
        <time>2012-03-20T19:11:43Z</time>
      </trkpt>
      <trkpt lat="59.9845335906" lon="23.420989797">
        <ele>14.2</ele>
        <time>2012-03-20T19:11:50Z</time>
      </trkpt>
      <trkpt lat="59.9845912581" lon="23.4207353225">
        <ele>13.2</ele>
        <time>2012-03-20T19:11:56Z</time>
      </trkpt>
      <trkpt lat="59.9846509372" lon="23.420456289">
        <ele>12.8</ele>
        <time>2012-03-20T19:12:02Z</time>
      </trkpt>
      <trkpt lat="59.9846865603" lon="23.4202016469">
        <ele>12.6</ele>
        <time>2012-03-20T19:12:07Z</time>
      </trkpt>
      <trkpt lat="59.9847080179" lon="23.4199404669">
        <ele>12.4</ele>
        <time>2012-03-20T19:12:12Z</time>
      </trkpt>
      <trkpt lat="59.9847489216" lon="23.4196371259">
        <ele>12.4</ele>
        <time>2012-03-20T19:12:18Z</time>
      </trkpt>
      <trkpt lat="59.9847716366" lon="23.419372677">
        <ele>12.2</ele>
        <time>2012-03-20T19:12:23Z</time>
      </trkpt>
      <trkpt lat="59.9847675294" lon="23.4191840842">
        <ele>11.8</ele>
        <time>2012-03-20T19:12:27Z</time>
      </trkpt>
      <trkpt lat="59.984755208" lon="23.4188634766">
        <ele>11</ele>
        <time>2012-03-20T19:12:33Z</time>
      </trkpt>
      <trkpt lat="59.9847484187" lon="23.4185732114">
        <ele>10.6</ele>
        <time>2012-03-20T19:12:39Z</time>
      </trkpt>
      <trkpt lat="59.9847574712" lon="23.4182124544">
        <ele>10.4</ele>
        <time>2012-03-20T19:12:46Z</time>
      </trkpt>
      <trkpt lat="59.9847623327" lon="23.4179652722">
        <ele>10.4</ele>
        <time>2012-03-20T19:12:51Z</time>
      </trkpt>
      <trkpt lat="59.9847713851" lon="23.417607365">
        <ele>10.2</ele>
        <time>2012-03-20T19:12:58Z</time>
      </trkpt>
      <trkpt lat="59.9847750731" lon="23.4173396472">
        <ele>9.4</ele>
        <time>2012-03-20T19:13:03Z</time>
      </trkpt>
      <trkpt lat="59.9847803537" lon="23.417072516">
        <ele>8.8</ele>
        <time>2012-03-20T19:13:08Z</time>
      </trkpt>
      <trkpt lat="59.9847887356" lon="23.4167503158">
        <ele>8.6</ele>
        <time>2012-03-20T19:13:14Z</time>
      </trkpt>
      <trkpt lat="59.9847863887" lon="23.4164656664">
        <ele>8.4</ele>
        <time>2012-03-20T19:13:19Z</time>
      </trkpt>
      <trkpt lat="59.9847828683" lon="23.4161576316">
        <ele>8.2</ele>
        <time>2012-03-20T19:13:25Z</time>
      </trkpt>
      <trkpt lat="59.9847726424" lon="23.4157697173">
        <ele>8.2</ele>
        <time>2012-03-20T19:13:32Z</time>
      </trkpt>
      <trkpt lat="59.9847472452" lon="23.4154142409">
        <ele>8.2</ele>
        <time>2012-03-20T19:13:39Z</time>
      </trkpt>
      <trkpt lat="59.9846977082" lon="23.4151271608">
        <ele>8.2</ele>
        <time>2012-03-20T19:13:45Z</time>
      </trkpt>
      <trkpt lat="59.9846602411" lon="23.4148600297">
        <ele>9</ele>
        <time>2012-03-20T19:13:50Z</time>
      </trkpt>
      <trkpt lat="59.9846418848" lon="23.4145299505">
        <ele>9.6</ele>
        <time>2012-03-20T19:13:56Z</time>
      </trkpt>
      <trkpt lat="59.9846256239" lon="23.4142056547">
        <ele>10</ele>
        <time>2012-03-20T19:14:02Z</time>
      </trkpt>
      <trkpt lat="59.9846148112" lon="23.4139285491">
        <ele>10</ele>
        <time>2012-03-20T19:14:07Z</time>
      </trkpt>
      <trkpt lat="59.9846059264" lon="23.4135582368">
        <ele>11</ele>
        <time>2012-03-20T19:14:14Z</time>
      </trkpt>
      <trkpt lat="59.984597796" lon="23.4131698195">
        <ele>11.6</ele>
        <time>2012-03-20T19:14:21Z</time>
      </trkpt>
      <trkpt lat="59.9845802778" lon="23.4128990003">
        <ele>12</ele>
        <time>2012-03-20T19:14:26Z</time>
      </trkpt>
      <trkpt lat="59.9845657771" lon="23.4126488006">
        <ele>12.4</ele>
        <time>2012-03-20T19:14:31Z</time>
      </trkpt>
      <trkpt lat="59.9845495162" lon="23.412288798">
        <ele>13.4</ele>
        <time>2012-03-20T19:14:38Z</time>
      </trkpt>
      <trkpt lat="59.9845382007" lon="23.4120240138">
        <ele>13.8</ele>
        <time>2012-03-20T19:14:43Z</time>
      </trkpt>
      <trkpt lat="59.9845174135" lon="23.4117517697">
        <ele>14</ele>
        <time>2012-03-20T19:14:48Z</time>
      </trkpt>
      <trkpt lat="59.9845022423" lon="23.4114862311">
        <ele>14.2</ele>
        <time>2012-03-20T19:14:53Z</time>
      </trkpt>
      <trkpt lat="59.9844872387" lon="23.4112199381">
        <ele>14.2</ele>
        <time>2012-03-20T19:14:58Z</time>
      </trkpt>
      <trkpt lat="59.9844715645" lon="23.4109262364">
        <ele>14.4</ele>
        <time>2012-03-20T19:15:04Z</time>
      </trkpt>
      <trkpt lat="59.9844479276" lon="23.4106143459">
        <ele>14.4</ele>
        <time>2012-03-20T19:15:10Z</time>
      </trkpt>
      <trkpt lat="59.9844159926" lon="23.4102626413">
        <ele>14.4</ele>
        <time>2012-03-20T19:15:17Z</time>
      </trkpt>
      <trkpt lat="59.984418088" lon="23.4102145292">
        <ele>14.4</ele>
        <time>2012-03-20T19:15:18Z</time>
      </trkpt>
      <trkpt lat="59.9844644399" lon="23.4100626492">
        <ele>14.4</ele>
        <time>2012-03-20T19:15:22Z</time>
      </trkpt>
      <trkpt lat="59.9845402961" lon="23.409827956">
        <ele>14.4</ele>
        <time>2012-03-20T19:15:28Z</time>
      </trkpt>
      <trkpt lat="59.9846129672" lon="23.4094655227">
        <ele>14.4</ele>
        <time>2012-03-20T19:15:35Z</time>
      </trkpt>
      <trkpt lat="59.9846226902" lon="23.4093976293">
        <ele>14.4</ele>
        <time>2012-03-20T19:15:37Z</time>
      </trkpt>
      <trkpt lat="59.9846576427" lon="23.4091578231">
        <ele>14.4</ele>
        <time>2012-03-20T19:15:41Z</time>
      </trkpt>
      <trkpt lat="59.984701061" lon="23.4088598466">
        <ele>14.4</ele>
        <time>2012-03-20T19:15:47Z</time>
      </trkpt>
      <trkpt lat="59.9847336666" lon="23.408623477">
        <ele>14.4</ele>
        <time>2012-03-20T19:15:52Z</time>
      </trkpt>
      <trkpt lat="59.9847669427" lon="23.4083880294">
        <ele>14.4</ele>
        <time>2012-03-20T19:15:57Z</time>
      </trkpt>
      <trkpt lat="59.9847906635" lon="23.408231707">
        <ele>14.4</ele>
        <time>2012-03-20T19:16:01Z</time>
      </trkpt>
      <trkpt lat="59.9848232691" lon="23.4080227462">
        <ele>14.4</ele>
        <time>2012-03-20T19:16:06Z</time>
      </trkpt>
      <trkpt lat="59.9848415416" lon="23.4079024659">
        <ele>14.4</ele>
        <time>2012-03-20T19:16:09Z</time>
      </trkpt>
      <trkpt lat="59.9848643404" lon="23.4077197405">
        <ele>14.4</ele>
        <time>2012-03-20T19:16:13Z</time>
      </trkpt>
      <trkpt lat="59.9848806851" lon="23.4075776673">
        <ele>14.4</ele>
        <time>2012-03-20T19:16:16Z</time>
      </trkpt>
      <trkpt lat="59.984909435" lon="23.4073164873">
        <ele>15.2</ele>
        <time>2012-03-20T19:16:22Z</time>
      </trkpt>
      <trkpt lat="59.9849443875" lon="23.407067042">
        <ele>16.2</ele>
        <time>2012-03-20T19:16:28Z</time>
      </trkpt>
      <trkpt lat="59.9849550325" lon="23.4070254677">
        <ele>16.4</ele>
        <time>2012-03-20T19:16:29Z</time>
      </trkpt>
      <trkpt lat="59.9851214133" lon="23.4069649504">
        <ele>17.4</ele>
        <time>2012-03-20T19:16:36Z</time>
      </trkpt>
      <trkpt lat="59.9852324734" lon="23.40697811">
        <ele>18.4</ele>
        <time>2012-03-20T19:16:40Z</time>
      </trkpt>
      <trkpt lat="59.9853695175" lon="23.4070122243">
        <ele>19.2</ele>
        <time>2012-03-20T19:16:45Z</time>
      </trkpt>
      <trkpt lat="59.9855671627" lon="23.4070698918">
        <ele>20</ele>
        <time>2012-03-20T19:16:52Z</time>
      </trkpt>
      <trkpt lat="59.9856928074" lon="23.4071365279">
        <ele>20.2</ele>
        <time>2012-03-20T19:16:57Z</time>
      </trkpt>
      <trkpt lat="59.985871258" lon="23.4072730691">
        <ele>21.4</ele>
        <time>2012-03-20T19:17:04Z</time>
      </trkpt>
      <trkpt lat="59.9860058713" lon="23.4073315747">
        <ele>22</ele>
        <time>2012-03-20T19:17:09Z</time>
      </trkpt>
      <trkpt lat="59.9861483636" lon="23.4073482547">
        <ele>22.2</ele>
        <time>2012-03-20T19:17:14Z</time>
      </trkpt>
      <trkpt lat="59.9862739245" lon="23.4073552117">
        <ele>22.4</ele>
        <time>2012-03-20T19:17:19Z</time>
      </trkpt>
      <trkpt lat="59.9864553926" lon="23.4073598217">
        <ele>22.6</ele>
        <time>2012-03-20T19:17:26Z</time>
      </trkpt>
      <trkpt lat="59.9865907603" lon="23.4073527809">
        <ele>22.6</ele>
        <time>2012-03-20T19:17:31Z</time>
      </trkpt>
      <trkpt lat="59.9867536206" lon="23.4073502664">
        <ele>22.6</ele>
        <time>2012-03-20T19:17:37Z</time>
      </trkpt>
      <trkpt lat="59.9869023994" lon="23.407362923">
        <ele>22.6</ele>
        <time>2012-03-20T19:17:43Z</time>
      </trkpt>
      <trkpt lat="59.9870541956" lon="23.4073205106">
        <ele>22.6</ele>
        <time>2012-03-20T19:17:49Z</time>
      </trkpt>
      <trkpt lat="59.9871722965" lon="23.4072651063">
        <ele>22.6</ele>
        <time>2012-03-20T19:17:54Z</time>
      </trkpt>
      <trkpt lat="59.9873159623" lon="23.4071393778">
        <ele>22.6</ele>
        <time>2012-03-20T19:18:00Z</time>
      </trkpt>
      <trkpt lat="59.987485612" lon="23.4069500306">
        <ele>22.6</ele>
        <time>2012-03-20T19:18:07Z</time>
      </trkpt>
      <trkpt lat="59.9876256735" lon="23.4067903554">
        <ele>22.6</ele>
        <time>2012-03-20T19:18:13Z</time>
      </trkpt>
      <trkpt lat="59.9877296929" lon="23.406639146">
        <ele>22.6</ele>
        <time>2012-03-20T19:18:18Z</time>
      </trkpt>
      <trkpt lat="59.9878452793" lon="23.4064977433">
        <ele>22.6</ele>
        <time>2012-03-20T19:18:24Z</time>
      </trkpt>
      <trkpt lat="59.9880154319" lon="23.4063337934">
        <ele>22.6</ele>
        <time>2012-03-20T19:18:31Z</time>
      </trkpt>
      <trkpt lat="59.9881745203" lon="23.4062988408">
        <ele>22.2</ele>
        <time>2012-03-20T19:18:37Z</time>
      </trkpt>
      <trkpt lat="59.9883483609" lon="23.4064025249">
        <ele>21.4</ele>
        <time>2012-03-20T19:18:43Z</time>
      </trkpt>
      <trkpt lat="59.9884568227" lon="23.406522889">
        <ele>21.2</ele>
        <time>2012-03-20T19:18:48Z</time>
      </trkpt>
      <trkpt lat="59.9885864069" lon="23.4066995795">
        <ele>20.8</ele>
        <time>2012-03-20T19:18:54Z</time>
      </trkpt>
      <trkpt lat="59.9886896719" lon="23.4068408983">
        <ele>20.8</ele>
        <time>2012-03-20T19:18:59Z</time>
      </trkpt>
      <trkpt lat="59.9888122991" lon="23.4070496076">
        <ele>20.8</ele>
        <time>2012-03-20T19:19:05Z</time>
      </trkpt>
      <trkpt lat="59.9888911728" lon="23.4072261304">
        <ele>20.6</ele>
        <time>2012-03-20T19:19:10Z</time>
      </trkpt>
      <trkpt lat="59.9890222657" lon="23.4074469097">
        <ele>20.6</ele>
        <time>2012-03-20T19:19:16Z</time>
      </trkpt>
      <trkpt lat="59.9891433842" lon="23.4076021425">
        <ele>20.6</ele>
        <time>2012-03-20T19:19:21Z</time>
      </trkpt>
      <trkpt lat="59.9892520974" lon="23.4077080897">
        <ele>20.6</ele>
        <time>2012-03-20T19:19:26Z</time>
      </trkpt>
      <trkpt lat="59.989371288" lon="23.4078291243">
        <ele>20.6</ele>
        <time>2012-03-20T19:19:32Z</time>
      </trkpt>
      <trkpt lat="59.9895240062" lon="23.4079440402">
        <ele>20.6</ele>
        <time>2012-03-20T19:19:38Z</time>
      </trkpt>
      <trkpt lat="59.9896359046" lon="23.4080636499">
        <ele>20.6</ele>
        <time>2012-03-20T19:19:43Z</time>
      </trkpt>
      <trkpt lat="59.9897512395" lon="23.4081618019">
        <ele>20.6</ele>
        <time>2012-03-20T19:19:48Z</time>
      </trkpt>
      <trkpt lat="59.9897778102" lon="23.4081582815">
        <ele>20.6</ele>
        <time>2012-03-20T19:19:49Z</time>
      </trkpt>
      <trkpt lat="59.9898809914" lon="23.4079435373">
        <ele>20.6</ele>
        <time>2012-03-20T19:19:55Z</time>
      </trkpt>
      <trkpt lat="59.9898961626" lon="23.4079084171">
        <ele>20.6</ele>
        <time>2012-03-20T19:19:56Z</time>
      </trkpt>
      <trkpt lat="59.9899703424" lon="23.407785287">
        <ele>20.6</ele>
        <time>2012-03-20T19:20:00Z</time>
      </trkpt>
    </trkseg>
  </trk>
</gpx>